AF1295 / F-GRHL 7700 Squawk Report (4th of October, 2021)

Aircraft A319 Reg No. F-GRHL Age 21 years old
Model A319 Jet engines 2 First flight 13-03-00
Registered 03-04-00 Rollout 03-00 Delivered 03-04-00
Construction No. 1201 Line No. N/A Series 111
ADSHEX 3944EB Airline name Air France Owner Aercap Holdings N.V.
Airfield based Paris-Charles de Gaulle~Val-d'Oise~F First tracked N/A
Time Lat Lon Altitude Heading Speed Vertical Rate
2021-10-04 11:58:27 GMT 50.039455 8.551186 0 160 4 0
2021-10-04 11:58:18 GMT 50.039612 8.551104 0 160 7 0
2021-10-04 11:58:14 GMT 50.039738 8.551031 0 157 6 0
2021-10-04 11:58:03 GMT 50.040047 8.550833 0 151 8 0
2021-10-04 11:57:43 GMT 50.040478 8.551427 0 247 13 0
2021-10-04 11:57:26 GMT 50.040840 8.552912 0 247 14 0
2021-10-04 11:57:21 GMT 50.040943 8.553358 0 250 17 0
2021-10-04 11:57:10 GMT 50.041214 8.554483 0 250 17 0
2021-10-04 11:57:02 GMT 50.041397 8.555242 0 250 15 0
2021-10-04 11:56:26 GMT 50.042118 8.558220 0 255 10 0
2021-10-04 11:56:21 GMT 50.042152 8.558517 0 270 11 0
2021-10-04 11:56:08 GMT 50.041878 8.559199 0 340 12 0
2021-10-04 11:55:37 GMT 50.040722 8.559964 0 315 9 0
2021-10-04 11:55:18 GMT 50.040276 8.560753 0 289 8 0
2021-10-04 11:55:02 GMT 50.040165 8.561634 0 281 10 0
2021-10-04 11:54:58 GMT 50.040115 8.562018 0 281 14 0
2021-10-04 11:54:46 GMT 50.040001 8.563192 0 281 18 0
2021-10-04 11:54:36 GMT 50.039864 8.564349 0 270 16 0
2021-10-04 11:54:29 GMT 50.039909 8.565123 0 253 20 0
2021-10-04 11:54:19 GMT 50.040340 8.566886 0 250 47 0
2021-10-04 11:54:06 GMT 50.041492 8.571767 0 250 68 0
2021-10-04 11:53:58 GMT 50.042561 8.576258 425 250 92 0
2021-10-04 11:53:48 GMT 50.044189 8.583141 125 251 120 -384
2021-10-04 11:53:39 GMT 50.045937 8.590269 350 251 123 -640
2021-10-04 11:53:28 GMT 50.048126 8.599697 400 251 123 -704
2021-10-04 11:53:22 GMT 50.049103 8.603854 550 250 123 -704
2021-10-04 11:53:18 GMT 50.049847 8.607046 775 250 124 -448
2021-10-04 11:53:15 GMT 50.050499 8.609644 0 251 123 0
2021-10-04 11:53:08 GMT 50.051926 8.615739 750 250 124 -640
2021-10-04 11:53:04 GMT 50.052795 8.619208 750 250 124 -640
2021-10-04 11:52:59 GMT 50.053894 8.623906 750 251 123 -576
2021-10-04 11:52:56 GMT 50.054550 8.626866 850 251 124 -576
2021-10-04 11:52:51 GMT 50.055222 8.629616 800 250 124 -448
2021-10-04 11:52:48 GMT 50.055946 8.632656 825 251 124 -576
2021-10-04 11:52:44 GMT 50.056778 8.636049 850 251 124 -576
2021-10-04 11:52:40 GMT 50.057465 8.639157 1,025 251 123 -448
2021-10-04 11:52:36 GMT 50.058243 8.642626 1,250 251 123 -704
2021-10-04 11:52:30 GMT 50.059296 8.647057 1,025 250 121 -768
2021-10-04 11:52:27 GMT 50.060028 8.650071 1,050 250 121 -576
2021-10-04 11:52:24 GMT 50.060715 8.652890 1,075 249 119 -640
2021-10-04 11:52:18 GMT 50.062866 8.661563 1,550 249 124 -576
2021-10-04 11:52:13 GMT 50.062866 8.661563 1,225 250 120 -704
2021-10-04 11:52:09 GMT 50.064140 8.666951 1,275 250 123 -640
2021-10-04 11:52:06 GMT 50.064140 8.666951 1,325 250 124 -448
2021-10-04 11:52:02 GMT 50.065109 8.671032 1,350 251 124 -640
2021-10-04 11:51:59 GMT 50.065430 8.672550 1,450 252 125 -640
2021-10-04 11:51:55 GMT 50.067398 8.681584 1,525 251 125 -768
2021-10-04 11:51:50 GMT 50.067398 8.681584 1,475 250 125 -768
2021-10-04 11:51:47 GMT 50.067810 8.683247 1,525 250 124 -448
2021-10-04 11:51:44 GMT 50.068359 8.685632 1,550 250 118 -576
2021-10-04 11:51:41 GMT 50.069118 8.688552 1,650 250 116 -576
2021-10-04 11:51:36 GMT 50.069962 8.692137 1,650 249 116 -576
2021-10-04 11:51:33 GMT 50.070515 8.694417 1,650 250 118 -576
2021-10-04 11:51:29 GMT 50.071289 8.697703 1,700 249 115 -640
2021-10-04 11:51:26 GMT 50.071793 8.699654 1,750 249 116 -576
2021-10-04 11:51:23 GMT 50.072376 8.702063 1,750 249 117 -384
2021-10-04 11:51:20 GMT 50.073212 8.705292 1,800 251 117 -896
2021-10-04 11:51:17 GMT 50.074520 8.710674 1,875 247 115 -640
2021-10-04 11:51:12 GMT 50.074520 8.710674 1,875 248 116 -448
2021-10-04 11:51:09 GMT 50.075359 8.713791 1,925 252 122 -768
2021-10-04 11:51:06 GMT 50.075912 8.715844 1,975 251 120 -768
2021-10-04 11:51:02 GMT 50.076569 8.718691 2,025 252 122 -768
2021-10-04 11:50:56 GMT 50.077789 8.724156 2,100 251 127 -640
2021-10-04 11:50:53 GMT 50.078613 8.727770 2,125 250 127 -448
2021-10-04 11:50:48 GMT 50.079315 8.730865 2,150 250 132 -640
2021-10-04 11:50:45 GMT 50.079987 8.733625 2,200 250 134 -512
2021-10-04 11:50:42 GMT 50.080627 8.736299 2,200 250 135 -640
2021-10-04 11:50:38 GMT 50.081818 8.741214 2,275 251 140 -704
2021-10-04 11:50:35 GMT 50.082340 8.743558 2,325 250 141 -832
2021-10-04 11:50:32 GMT 50.082897 8.745934 2,325 250 142 -832
2021-10-04 11:50:29 GMT 50.083420 8.748081 2,350 250 145 -640
2021-10-04 11:50:25 GMT 50.084564 8.752779 2,450 250 146 -704
2021-10-04 11:50:22 GMT 50.085274 8.755658 2,475 250 148 -768
2021-10-04 11:50:19 GMT 50.085938 8.758344 2,500 250 148 -640
2021-10-04 11:50:16 GMT 50.086670 8.761448 2,525 250 149 -640
2021-10-04 11:50:13 GMT 50.087402 8.764343 2,600 250 151 -896
2021-10-04 11:50:10 GMT 50.088299 8.768055 2,600 250 151 -896
2021-10-04 11:50:06 GMT 50.089233 8.772005 2,675 250 151 -768
2021-10-04 11:50:02 GMT 50.090286 8.776558 2,825 250 151 -768
2021-10-04 11:49:57 GMT 50.091293 8.780678 2,800 250 153 -768
2021-10-04 11:49:53 GMT 50.092117 8.784148 2,825 250 154 -768
2021-10-04 11:49:49 GMT 50.093281 8.789062 2,900 252 156 -960
2021-10-04 11:49:45 GMT 50.094177 8.793182 2,950 252 156 -1088
2021-10-04 11:49:42 GMT 50.095097 8.797376 3,025 251 156 -1024
2021-10-04 11:49:39 GMT 50.096539 8.803760 3,250 249 158 -1024
2021-10-04 11:49:36 GMT 50.096539 8.803760 3,150 250 157 -896
2021-10-04 11:49:33 GMT 50.097935 8.809402 3,250 249 158 -960
2021-10-04 11:49:30 GMT 50.097935 8.809402 3,250 249 158 -960
2021-10-04 11:49:27 GMT 50.098774 8.812594 3,275 249 158 -960
2021-10-04 11:49:23 GMT 50.099991 8.817396 3,475 249 158 -832
2021-10-04 11:49:20 GMT 50.100636 8.820017 3,425 249 159 -832
2021-10-04 11:49:16 GMT 50.101593 8.823756 3,450 250 159 -832
2021-10-04 11:49:13 GMT 50.102692 8.828310 3,500 251 161 -832
2021-10-04 11:49:09 GMT 50.103336 8.831226 3,550 252 163 -960
2021-10-04 11:49:06 GMT 50.104065 8.834453 3,600 252 164 -960
2021-10-04 11:49:02 GMT 50.105026 8.838935 3,650 253 164 -1088
2021-10-04 11:48:58 GMT 50.105988 8.843549 3,825 252 164 -832
2021-10-04 11:48:53 GMT 50.107315 8.849704 3,825 251 164 -640
2021-10-04 11:48:50 GMT 50.108131 8.853199 3,875 248 165 -576
2021-10-04 11:48:47 GMT 50.108917 8.856354 3,875 248 165 -576
2021-10-04 11:48:42 GMT 50.110336 8.861630 3,925 247 165 0
2021-10-04 11:48:36 GMT 50.112213 8.868641 3,900 251 167 384
2021-10-04 11:48:33 GMT 50.113018 8.871980 3,900 252 169 320
2021-10-04 11:48:28 GMT 50.114410 8.878616 3,850 253 178 256
2021-10-04 11:48:23 GMT 50.116325 8.888088 3,825 252 180 0
2021-10-04 11:48:20 GMT 50.116325 8.888088 3,825 252 180 0
2021-10-04 11:48:17 GMT 50.117069 8.891354 3,825 250 180 0
2021-10-04 11:48:14 GMT 50.117798 8.894661 3,825 249 180 0
2021-10-04 11:48:11 GMT 50.118885 8.898852 3,825 249 180 0
2021-10-04 11:48:07 GMT 50.119862 8.902712 3,825 249 179 0
2021-10-04 11:48:02 GMT 50.121643 8.909840 3,825 248 179 0
2021-10-04 11:47:59 GMT 50.122471 8.912807 3,825 252 180 0
2021-10-04 11:47:56 GMT 50.123402 8.917261 3,825 252 179 0
2021-10-04 11:47:52 GMT 50.125214 8.925163 3,825 250 180 0
2021-10-04 11:47:49 GMT 50.125214 8.925163 3,825 251 179 0
2021-10-04 11:47:45 GMT 50.126240 8.929658 3,825 251 180 -64
2021-10-04 11:47:42 GMT 50.127045 8.933186 3,825 251 181 0
2021-10-04 11:47:39 GMT 50.128010 8.937526 3,850 251 181 0
2021-10-04 11:47:36 GMT 50.128845 8.941238 3,850 250 182 0
2021-10-04 11:47:32 GMT 50.129929 8.945762 3,850 249 182 64
2021-10-04 11:47:29 GMT 50.131081 8.950294 3,850 249 183 64
2021-10-04 11:47:25 GMT 50.132385 8.955416 3,850 248 186 64
2021-10-04 11:47:21 GMT 50.133545 8.959712 3,825 248 188 64
2021-10-04 11:47:17 GMT 50.135101 8.965494 3,825 248 189 128
2021-10-04 11:47:11 GMT 50.136620 8.971153 3,825 247 193 64
2021-10-04 11:47:08 GMT 50.137848 8.975686 3,825 247 198 192
2021-10-04 11:47:05 GMT 50.138996 8.979764 3,800 247 201 0
2021-10-04 11:47:01 GMT 50.140575 8.985406 3,800 245 208 -64
2021-10-04 11:46:56 GMT 50.142391 8.991270 3,825 237 212 0
2021-10-04 11:46:52 GMT 50.144989 8.998670 3,825 241 212 0
2021-10-04 11:46:48 GMT 50.146488 9.002776 3,825 239 212 0
2021-10-04 11:46:41 GMT 50.150253 9.011247 3,825 229 215 0
2021-10-04 11:46:38 GMT 50.151981 9.014356 3,825 226 214 0
2021-10-04 11:46:35 GMT 50.154358 9.018142 3,825 221 214 0
2021-10-04 11:46:31 GMT 50.160362 9.026159 3,825 221 214 0
2021-10-04 11:46:28 GMT 50.160362 9.026159 3,825 221 214 0
2021-10-04 11:46:20 GMT 50.165771 9.033219 3,825 220 215 0
2021-10-04 11:46:17 GMT 50.167950 9.036106 3,825 220 215 0
2021-10-04 11:46:12 GMT 50.171722 9.040953 3,825 220 213 0
2021-10-04 11:46:09 GMT 50.173771 9.043678 3,825 220 213 0
2021-10-04 11:46:06 GMT 50.179214 9.050730 3,825 220 214 0
2021-10-04 11:46:00 GMT 50.180832 9.052807 3,825 221 214 0
2021-10-04 11:45:56 GMT 50.183578 9.056421 3,825 220 213 0
2021-10-04 11:45:51 GMT 50.188526 9.062756 3,825 220 213 64
2021-10-04 11:45:48 GMT 50.190479 9.065354 3,825 221 214 0
2021-10-04 11:45:45 GMT 50.192249 9.067655 3,825 221 214 0
2021-10-04 11:45:40 GMT 50.196716 9.073551 3,825 221 214 0
2021-10-04 11:45:34 GMT 50.200241 9.078176 3,825 221 214 0
2021-10-04 11:45:29 GMT 50.204269 9.083597 3,825 151 221 0
2021-10-04 11:45:25 GMT 50.207153 9.087428 3,825 221 214 0
2021-10-04 11:45:20 GMT 50.211010 9.092523 3,825 221 214 0
2021-10-04 11:45:14 GMT 50.215622 9.098631 3,825 221 214 0
2021-10-04 11:45:09 GMT 50.222927 9.108408 3,825 222 214 0
2021-10-04 11:45:04 GMT 50.222927 9.108408 3,825 222 214 0
2021-10-04 11:45:00 GMT 50.226334 9.112942 3,850 222 216 0
2021-10-04 11:44:55 GMT 50.230610 9.118727 3,825 221 216 -64
2021-10-04 11:44:50 GMT 50.233292 9.122266 3,850 217 216 128
2021-10-04 11:44:47 GMT 50.236267 9.125880 3,850 217 216 128
2021-10-04 11:44:44 GMT 50.238235 9.128049 3,825 213 216 0
2021-10-04 11:44:41 GMT 50.241714 9.131084 3,825 199 215 0
2021-10-04 11:44:38 GMT 50.248444 9.134048 3,825 151 221 0
2021-10-04 11:44:33 GMT 50.248444 9.134048 3,825 186 218 -64
2021-10-04 11:44:30 GMT 50.258057 9.132819 3,825 170 219 0
2021-10-04 11:44:24 GMT 50.258057 9.132819 3,825 159 220 0
2021-10-04 11:44:19 GMT 50.262825 9.129713 3,825 151 221 0
2021-10-04 11:44:16 GMT 50.265335 9.127326 3,825 135 224 0
2021-10-04 11:44:11 GMT 50.269295 9.121919 3,825 126 226 0
2021-10-04 11:44:07 GMT 50.271698 9.117279 3,825 110 229 64
2021-10-04 11:44:03 GMT 50.273857 9.111452 3,825 115 228 0
2021-10-04 11:43:58 GMT 50.275406 9.104775 3,825 96 232 0
2021-10-04 11:43:54 GMT 50.276276 9.096607 3,825 59 239 0
2021-10-04 11:43:49 GMT 50.276043 9.088291 3,825 73 237 0
2021-10-04 11:43:44 GMT 50.274628 9.079622 3,825 68 238 -64
2021-10-04 11:43:38 GMT 50.267944 9.060083 3,825 59 238 0
2021-10-04 11:43:31 GMT 50.266220 9.055629 3,825 59 238 0
2021-10-04 11:43:27 GMT 50.266220 9.055629 3,825 59 239 0
2021-10-04 11:43:24 GMT 50.264236 9.050494 3,825 59 238 0
2021-10-04 11:43:20 GMT 50.261948 9.044495 3,825 59 239 0
2021-10-04 11:43:17 GMT 50.260529 9.040664 3,825 60 238 128
2021-10-04 11:43:13 GMT 50.258076 9.034251 3,825 60 238 0
2021-10-04 11:43:09 GMT 50.255699 9.027718 3,825 59 237 64
2021-10-04 11:43:06 GMT 50.253754 9.022522 3,825 59 238 -192
2021-10-04 11:43:00 GMT 50.250256 9.013169 3,825 59 239 -64
2021-10-04 11:42:57 GMT 50.249512 9.011164 3,825 59 239 -64
2021-10-04 11:42:53 GMT 50.246750 9.003802 3,825 59 240 0
2021-10-04 11:42:50 GMT 50.245193 8.999610 3,825 59 240 0
2021-10-04 11:42:47 GMT 50.243549 8.995205 3,825 59 241 0
2021-10-04 11:42:43 GMT 50.241177 8.988895 3,825 59 241 0
2021-10-04 11:42:39 GMT 50.238522 8.981620 3,825 59 242 -64
2021-10-04 11:42:36 GMT 50.237457 8.978793 3,825 32 242 0
2021-10-04 11:42:33 GMT 50.233868 8.969372 3,825 4 238 0
2021-10-04 11:42:30 GMT 50.233868 8.969372 3,850 58 242 0
2021-10-04 11:42:27 GMT 50.232376 8.965567 3,825 12 240 0
2021-10-04 11:42:23 GMT 50.229073 8.957643 3,825 53 242 64
2021-10-04 11:42:20 GMT 50.227753 8.955014 3,825 47 242 0
2021-10-04 11:42:17 GMT 50.225769 8.951408 3,825 32 242 0
2021-10-04 11:42:14 GMT 50.223267 8.947786 3,825 37 242 0
2021-10-04 11:42:11 GMT 50.221069 8.945256 3,825 32 242 0
2021-10-04 11:42:08 GMT 50.217762 8.942129 3,825 20 240 64
2021-10-04 11:42:04 GMT 50.213432 8.939308 3,825 16 240 0
2021-10-04 11:42:00 GMT 50.208160 8.937378 3,825 6 238 0
2021-10-04 11:41:55 GMT 50.203720 8.936872 3,825 344 233 -64
2021-10-04 11:41:50 GMT 50.197266 8.937884 3,825 342 233 -64
2021-10-04 11:41:47 GMT 50.191181 8.940867 3,825 342 233 -64
2021-10-04 11:41:44 GMT 50.191181 8.940867 3,825 336 232 0
2021-10-04 11:41:41 GMT 50.189117 8.942293 3,825 334 231 0
2021-10-04 11:41:37 GMT 50.184940 8.945543 3,850 334 232 0
2021-10-04 11:41:31 GMT 50.179447 8.949923 3,825 333 232 -64
2021-10-04 11:41:27 GMT 50.175751 8.952918 3,850 332 231 -64
2021-10-04 11:41:24 GMT 50.173050 8.955086 3,850 332 231 -64
2021-10-04 11:41:21 GMT 50.170029 8.957688 3,850 332 230 0
2021-10-04 11:41:17 GMT 50.162502 8.963879 3,850 333 230 -192
2021-10-04 11:41:14 GMT 50.162502 8.963879 3,850 333 230 -128
2021-10-04 11:41:10 GMT 50.160221 8.965735 3,850 334 232 -256
2021-10-04 11:41:07 GMT 50.156479 8.968747 3,950 334 233 -768
2021-10-04 11:41:04 GMT 50.154236 8.970481 3,875 334 233 -768
2021-10-04 11:41:01 GMT 50.151566 8.972490 3,900 334 233 -768
2021-10-04 11:40:58 GMT 50.148445 8.974865 3,950 334 233 -704
2021-10-04 11:40:55 GMT 50.145630 8.977059 4,050 334 233 -768
2021-10-04 11:40:52 GMT 50.141785 8.980095 4,025 334 233 -768
2021-10-04 11:40:48 GMT 50.139133 8.982140 4,100 334 234 -768
2021-10-04 11:40:44 GMT 50.133968 8.986148 4,125 333 234 -704
2021-10-04 11:40:39 GMT 50.129593 8.989711 4,200 333 233 -768
2021-10-04 11:40:35 GMT 50.125866 8.992606 4,250 333 234 -704
2021-10-04 11:40:31 GMT 50.119629 8.997658 4,325 333 235 -768
2021-10-04 11:40:28 GMT 50.119629 8.997658 4,325 333 235 -768
2021-10-04 11:40:25 GMT 50.116837 8.999881 4,450 334 234 -704
2021-10-04 11:40:22 GMT 50.113949 9.002182 4,425 334 234 -704
2021-10-04 11:40:19 GMT 50.110153 9.005103 4,475 334 234 -704
2021-10-04 11:40:15 GMT 50.106037 9.008269 4,500 335 235 -704
2021-10-04 11:40:11 GMT 50.101730 9.011391 4,625 290 226 -1024
2021-10-04 11:40:08 GMT 50.099609 9.012946 4,600 336 237 -768
2021-10-04 11:40:04 GMT 50.095505 9.015872 4,675 336 239 -832
2021-10-04 11:40:00 GMT 50.091385 9.018836 4,725 290 226 -1024
2021-10-04 11:39:56 GMT 50.087585 9.021655 4,825 334 237 -64
2021-10-04 11:39:53 GMT 50.084480 9.024081 4,850 333 237 -128
2021-10-04 11:39:48 GMT 50.080032 9.027581 4,850 333 237 -128
2021-10-04 11:39:45 GMT 50.076187 9.030762 4,850 331 237 0
2021-10-04 11:39:42 GMT 50.070236 9.036181 4,850 330 236 0
2021-10-04 11:39:38 GMT 50.070236 9.036181 4,850 325 234 -64
2021-10-04 11:39:34 GMT 50.065887 9.041459 4,850 315 230 -64
2021-10-04 11:39:27 GMT 50.060852 9.050132 4,850 304 227 -384
2021-10-04 11:39:23 GMT 50.058929 9.054541 4,875 298 227 -704
2021-10-04 11:39:18 GMT 50.056831 9.061345 4,950 290 226 -1024
2021-10-04 11:39:14 GMT 50.055588 9.067335 5,000 283 224 -1344
2021-10-04 11:39:10 GMT 50.054672 9.073406 5,100 283 224 -1344
2021-10-04 11:39:06 GMT 50.053482 9.081573 5,225 283 224 -1280
2021-10-04 11:39:03 GMT 50.053150 9.083986 5,250 283 225 -1216
2021-10-04 11:38:58 GMT 50.051895 9.092745 5,375 283 225 -1088
2021-10-04 11:38:54 GMT 50.050919 9.099571 5,450 283 226 -1024
2021-10-04 11:38:51 GMT 50.050453 9.102989 5,475 283 227 -1024
2021-10-04 11:38:47 GMT 50.049637 9.108895 5,550 283 228 -960
2021-10-04 11:38:44 GMT 50.048813 9.114677 5,600 283 229 -1088
2021-10-04 11:38:41 GMT 50.048172 9.119231 5,675 283 229 -1152
2021-10-04 11:38:38 GMT 50.047348 9.124941 5,725 283 229 -1280
2021-10-04 11:38:35 GMT 50.046680 9.129564 6,250 218 243 -896
2021-10-04 11:38:32 GMT 50.045746 9.135855 5,875 283 230 -1216
2021-10-04 11:38:27 GMT 50.044830 9.142432 5,950 282 230 -1088
2021-10-04 11:38:24 GMT 50.044308 9.147157 6,075 275 232 -1152
2021-10-04 11:38:21 GMT 50.043888 9.151314 6,050 275 232 -1152
2021-10-04 11:38:17 GMT 50.043640 9.158767 6,200 245 236 -768
2021-10-04 11:38:14 GMT 50.043961 9.163754 6,225 255 234 -832
2021-10-04 11:38:11 GMT 50.044556 9.168524 6,225 253 234 -832
2021-10-04 11:38:07 GMT 50.046341 9.175969 6,300 245 236 -768
2021-10-04 11:38:04 GMT 50.047474 9.179374 6,450 218 243 -896
2021-10-04 11:38:01 GMT 50.049335 9.183754 6,450 221 243 -832
2021-10-04 11:37:56 GMT 50.052734 9.189692 6,450 223 242 -832
2021-10-04 11:37:52 GMT 50.056458 9.194256 6,525 208 246 -832
2021-10-04 11:37:49 GMT 50.059902 9.197487 6,550 206 247 -832
2021-10-04 11:37:45 GMT 50.063534 9.200085 6,625 201 251 -640
2021-10-04 11:37:42 GMT 50.066986 9.202062 6,650 201 253 -512
2021-10-04 11:37:39 GMT 50.070557 9.204086 6,675 201 255 -576
2021-10-04 11:37:36 GMT 50.073303 9.205676 6,700 201 255 -640
2021-10-04 11:37:33 GMT 50.076691 9.207627 6,775 201 260 -704
2021-10-04 11:37:30 GMT 50.079922 9.209438 6,825 201 266 -832
2021-10-04 11:37:27 GMT 50.083736 9.211665 6,825 201 262 -768
2021-10-04 11:37:23 GMT 50.087879 9.214115 6,875 201 265 -896
2021-10-04 11:37:20 GMT 50.091976 9.216416 7,000 201 268 -960
2021-10-04 11:37:16 GMT 50.095749 9.218420 6,975 201 269 -1088
2021-10-04 11:37:13 GMT 50.099751 9.220796 7,075 200 270 -1856
2021-10-04 11:37:10 GMT 50.103291 9.222800 7,125 200 270 -1856
2021-10-04 11:37:07 GMT 50.107666 9.225249 7,250 200 270 -1792
2021-10-04 11:37:04 GMT 50.110977 9.226998 7,375 199 270 -1792
2021-10-04 11:37:01 GMT 50.114136 9.228664 7,425 199 271 -1728
2021-10-04 11:36:58 GMT 50.118530 9.230901 7,500 199 271 -1664
2021-10-04 11:36:55 GMT 50.120281 9.231930 7,625 199 271 -1664
2021-10-04 11:36:52 GMT 50.123863 9.233712 7,725 198 272 -1728
2021-10-04 11:36:48 GMT 50.129871 9.236607 7,825 197 273 -1664
2021-10-04 11:36:45 GMT 50.132805 9.237943 7,850 195 274 -1792
2021-10-04 11:36:42 GMT 50.136204 9.239279 8,000 189 275 -2624
2021-10-04 11:36:39 GMT 50.140205 9.240615 8,075 188 275 -2752
2021-10-04 11:36:35 GMT 50.146179 9.241526 8,275 178 276 -2688
2021-10-04 11:36:32 GMT 50.149155 9.241453 8,475 175 275 -2432
2021-10-04 11:36:29 GMT 50.153000 9.241092 8,525 175 274 -2304
2021-10-04 11:36:25 GMT 50.158539 9.240442 8,975 175 274 -1984
2021-10-04 11:36:21 GMT 50.162430 9.239936 9,100 175 273 -1984
2021-10-04 11:36:18 GMT 50.166367 9.239502 8,900 176 273 -1920
2021-10-04 11:36:15 GMT 50.171722 9.238924 8,975 176 273 -1856
2021-10-04 11:36:12 GMT 50.174934 9.238611 9,175 176 273 -2176
2021-10-04 11:36:09 GMT 50.178238 9.238240 9,275 177 272 -2368
2021-10-04 11:36:06 GMT 50.187515 9.237406 9,425 177 272 -2368
2021-10-04 11:36:03 GMT 50.187515 9.237406 9,450 177 272 -2368
2021-10-04 11:36:00 GMT 50.189346 9.237261 9,450 177 272 -2368
2021-10-04 11:35:57 GMT 50.197044 9.236755 9,700 177 270 -2688
2021-10-04 11:35:54 GMT 50.197044 9.236755 9,875 177 267 -2816
2021-10-04 11:35:51 GMT 50.200817 9.236458 9,875 177 267 -2816
2021-10-04 11:35:48 GMT 50.204773 9.236162 10,075 177 265 -2816
2021-10-04 11:35:45 GMT 50.207798 9.235939 10,350 177 260 -2496
2021-10-04 11:35:41 GMT 50.212646 9.235671 10,725 177 261 -2560
2021-10-04 11:35:37 GMT 50.222809 9.235021 10,650 178 259 -2432
2021-10-04 11:35:34 GMT 50.222809 9.235021 10,725 178 259 -2368
2021-10-04 11:35:31 GMT 50.225395 9.234900 10,925 178 258 -2240
2021-10-04 11:35:28 GMT 50.229218 9.234732 10,925 178 258 -2112
2021-10-04 11:35:24 GMT 50.233337 9.234515 11,100 177 259 -1472
2021-10-04 11:35:20 GMT 50.238430 9.234306 11,175 177 259 -1472
2021-10-04 11:35:17 GMT 50.241440 9.234081 11,225 177 259 -1472
2021-10-04 11:35:14 GMT 50.250778 9.233503 11,375 177 260 -1600
2021-10-04 11:35:11 GMT 50.250778 9.233503 12,425 178 263 -1728
2021-10-04 11:35:08 GMT 50.254070 9.233341 11,500 177 262 -1664
2021-10-04 11:35:04 GMT 50.258167 9.233118 11,650 177 263 -1856
2021-10-04 11:35:01 GMT 50.261566 9.232895 11,700 178 263 -1728
2021-10-04 11:34:58 GMT 50.264874 9.232673 11,750 178 263 -1792
2021-10-04 11:34:54 GMT 50.270084 9.232376 12,150 176 263 -1920
2021-10-04 11:34:51 GMT 50.274307 9.232130 12,175 176 263 -1984
2021-10-04 11:34:48 GMT 50.277115 9.231930 12,250 176 263 -1920
2021-10-04 11:34:45 GMT 50.280624 9.231624 12,200 176 263 -1920
2021-10-04 11:34:42 GMT 50.284981 9.231188 12,300 176 263 -1920
2021-10-04 11:34:39 GMT 50.289452 9.230743 12,400 175 263 -1920
2021-10-04 11:34:36 GMT 50.291885 9.230467 12,475 175 263 -1984
2021-10-04 11:34:33 GMT 50.298935 9.229672 12,875 175 262 -2112
2021-10-04 11:34:30 GMT 50.298935 9.229672 12,750 175 262 -2112
2021-10-04 11:34:26 GMT 50.303879 9.229094 12,800 175 262 -2176
2021-10-04 11:34:23 GMT 50.307770 9.228588 12,900 175 262 -2112
2021-10-04 11:34:20 GMT 50.311146 9.228144 13,075 175 261 -1920
2021-10-04 11:34:17 GMT 50.315369 9.227648 13,150 176 261 -1728
2021-10-04 11:34:14 GMT 50.319214 9.227287 13,275 178 261 -1664
2021-10-04 11:34:11 GMT 50.325851 9.227142 14,025 218 258 -1536
2021-10-04 11:34:08 GMT 50.325851 9.227142 13,400 186 259 -1728
2021-10-04 11:34:05 GMT 50.329163 9.227551 13,925 220 258 -1472
2021-10-04 11:34:02 GMT 50.333725 9.228949 13,775 200 256 -1600
2021-10-04 11:33:59 GMT 50.335865 9.230000 13,725 204 256 -1600
2021-10-04 11:33:56 GMT 50.339588 9.232450 14,025 214 257 -1536
2021-10-04 11:33:53 GMT 50.341965 9.234298 13,775 216 257 -1536
2021-10-04 11:33:49 GMT 50.346336 9.239205 13,925 226 260 -1472
2021-10-04 11:33:46 GMT 50.349060 9.243116 14,000 230 261 -1472
2021-10-04 11:33:43 GMT 50.351227 9.246925 14,425 245 267 -2048
2021-10-04 11:33:40 GMT 50.353462 9.251973 14,225 251 269 -2240
2021-10-04 11:33:37 GMT 50.355194 9.256777 14,225 249 268 -2240
2021-10-04 11:33:33 GMT 50.356979 9.263571 14,400 259 272 -2176
2021-10-04 11:33:30 GMT 50.358078 9.269570 14,550 259 273 -2176
2021-10-04 11:33:26 GMT 50.359360 9.279255 14,650 259 273 -2112
2021-10-04 11:33:23 GMT 50.359837 9.283002 14,850 260 273 -1856
2021-10-04 11:33:20 GMT 50.360676 9.289609 16,300 260 274 -1664
2021-10-04 11:33:16 GMT 50.361652 9.297700 14,950 260 273 -1728
2021-10-04 11:33:13 GMT 50.362820 9.308315 15,200 262 276 -1600
2021-10-04 11:33:10 GMT 50.362820 9.308315 15,125 262 276 -1600
2021-10-04 11:33:07 GMT 50.363281 9.313363 15,175 295 306 -2304
2021-10-04 11:33:04 GMT 50.363842 9.320563 15,425 285 296 -2176
2021-10-04 11:33:01 GMT 50.364029 9.327096 15,650 272 286 -1984
2021-10-04 11:32:58 GMT 50.363842 9.332812 16,300 298 309 -2304
2021-10-04 11:32:55 GMT 50.363190 9.339864 15,650 285 296 -2176
2021-10-04 11:32:52 GMT 50.362335 9.345462 15,675 288 299 -2240
2021-10-04 11:32:48 GMT 50.359909 9.355798 15,875 296 307 -2240
2021-10-04 11:32:45 GMT 50.359138 9.358347 15,875 296 307 -2240
2021-10-04 11:32:42 GMT 50.356384 9.365989 16,125 307 319 -2240
2021-10-04 11:32:39 GMT 50.353413 9.372526 16,175 311 322 -2304
2021-10-04 11:32:35 GMT 50.349270 9.379875 16,400 319 330 -2048
2021-10-04 11:32:32 GMT 50.347229 9.383047 16,900 321 333 -2176
2021-10-04 11:32:29 GMT 50.343567 9.388034 16,700 322 333 -2240
2021-10-04 11:32:26 GMT 50.339867 9.392717 16,650 322 333 -2240
2021-10-04 11:32:23 GMT 50.336105 9.397358 16,775 322 333 -2240
2021-10-04 11:32:20 GMT 50.332260 9.402129 16,850 322 333 -2112
2021-10-04 11:32:16 GMT 50.327179 9.408489 17,750 322 335 -1408
2021-10-04 11:32:13 GMT 50.324799 9.411380 17,150 322 333 -1664
2021-10-04 11:32:10 GMT 50.320827 9.416322 17,200 322 333 -1472
2021-10-04 11:32:07 GMT 50.317196 9.420776 17,325 322 337 -1152
2021-10-04 11:32:04 GMT 50.313286 9.425601 17,350 322 337 -1152
2021-10-04 11:32:01 GMT 50.309738 9.429956 17,450 322 341 -896
2021-10-04 11:31:58 GMT 50.302872 9.438485 17,450 322 340 -960
2021-10-04 11:31:55 GMT 50.302872 9.438485 17,500 322 343 -832
2021-10-04 11:31:52 GMT 50.297882 9.444556 17,525 322 345 -832
2021-10-04 11:31:49 GMT 50.295135 9.447953 17,875 322 349 -832
2021-10-04 11:31:46 GMT 50.289963 9.454329 17,600 322 350 -832
2021-10-04 11:31:42 GMT 50.286026 9.459229 18,800 359 418 -2496
2021-10-04 11:31:36 GMT 50.277557 9.469709 17,800 323 359 -1664
2021-10-04 11:31:33 GMT 50.275066 9.472739 17,850 324 360 -2240
2021-10-04 11:31:30 GMT 50.266968 9.482018 18,100 325 361 -2560
2021-10-04 11:31:27 GMT 50.266968 9.482018 18,100 328 365 -2688
2021-10-04 11:31:24 GMT 50.260849 9.487851 18,500 333 369 -2304
2021-10-04 11:31:20 GMT 50.256771 9.491222 18,400 340 377 -2112
2021-10-04 11:31:17 GMT 50.251324 9.494786 18,500 343 383 -1728
2021-10-04 11:31:14 GMT 50.245319 9.497978 18,550 344 385 -1664
2021-10-04 11:31:11 GMT 50.235672 9.501584 18,650 349 393 -1344
2021-10-04 11:31:08 GMT 50.235672 9.501584 21,125 358 409 -1536
2021-10-04 11:31:05 GMT 50.230179 9.502885 18,875 358 409 -1536
2021-10-04 11:31:02 GMT 50.220154 9.503969 18,850 358 409 -1536
2021-10-04 11:30:59 GMT 50.213898 9.504287 19,200 359 411 -1408
2021-10-04 11:30:56 GMT 50.213898 9.504287 19,125 358 413 -1664
2021-10-04 11:30:53 GMT 50.207199 9.504692 19,075 358 413 -1664
2021-10-04 11:30:50 GMT 50.193275 9.505475 19,225 358 413 -2112
2021-10-04 11:30:46 GMT 50.193275 9.505475 19,425 359 414 -2240
2021-10-04 11:30:43 GMT 50.186966 9.505776 19,425 359 415 -2176
2021-10-04 11:30:40 GMT 50.183167 9.505848 19,650 359 416 -2368
2021-10-04 11:30:37 GMT 50.176208 9.506137 19,650 359 418 -2496
2021-10-04 11:30:34 GMT 50.170605 9.506366 19,775 359 418 -2496
2021-10-04 11:30:31 GMT 50.166641 9.506426 20,025 359 418 -2496
2021-10-04 11:30:28 GMT 50.159897 9.506663 20,025 359 418 -2496
2021-10-04 11:30:25 GMT 50.146591 9.507077 20,325 0 419 -2816
2021-10-04 11:30:22 GMT 50.141743 9.507182 20,325 0 419 -2816
2021-10-04 11:30:16 GMT 50.130707 9.507438 20,500 0 419 -2816
2021-10-04 11:30:13 GMT 50.130707 9.507438 20,625 0 418 -2880
2021-10-04 11:30:10 GMT 50.124939 9.507583 20,775 0 418 -2752
2021-10-04 11:30:07 GMT 50.118187 9.507776 20,975 0 419 -2240
2021-10-04 11:30:04 GMT 50.110458 9.507999 21,025 359 420 -2176
2021-10-04 11:30:01 GMT 50.108276 9.508016 21,050 359 420 -2176
2021-10-04 11:29:59 GMT 50.102638 9.508222 21,150 359 420 -2176
2021-10-04 11:29:56 GMT 50.097702 9.508370 21,225 359 421 -2112
2021-10-04 11:29:53 GMT 50.091839 9.508519 21,475 359 421 -2112
2021-10-04 11:29:49 GMT 50.083420 9.508884 21,500 359 421 -2048
2021-10-04 11:29:47 GMT 50.081364 9.508964 21,550 359 422 -2048
2021-10-04 11:29:46 GMT 50.079575 9.509028 21,575 359 422 -2048
2021-10-04 11:29:45 GMT 50.077408 9.509187 21,625 359 422 -2048
2021-10-04 11:29:42 GMT 50.071793 9.509462 21,725 358 423 -1984
2021-10-04 11:29:39 GMT 50.062603 9.509929 21,925 358 424 -1856
2021-10-04 11:29:36 GMT 50.059483 9.510152 21,925 358 425 -1856
2021-10-04 11:29:35 GMT 50.057434 9.510300 21,950 358 427 -1856
2021-10-04 11:29:33 GMT 50.044819 9.511042 22,075 358 427 -1856
2021-10-04 11:29:30 GMT 50.041374 9.511265 22,125 358 429 -1728
2021-10-04 11:29:27 GMT 50.041374 9.511265 22,175 358 429 -1728
2021-10-04 11:29:26 GMT 50.039108 9.511486 22,225 358 431 -1856
2021-10-04 11:29:25 GMT 50.037186 9.511558 22,250 358 431 -1856
2021-10-04 11:29:23 GMT 50.033321 9.511859 22,300 358 431 -1856
2021-10-04 11:29:21 GMT 50.029587 9.512064 22,350 358 432 -1920
2021-10-04 11:29:18 GMT 50.022614 9.512527 22,550 358 433 -2048
2021-10-04 11:29:15 GMT 50.017227 9.512931 22,550 358 434 -2048
2021-10-04 11:29:13 GMT 50.011440 9.513344 22,725 358 435 -2112
2021-10-04 11:29:10 GMT 50.007156 9.513654 22,725 358 435 -2240
2021-10-04 11:29:09 GMT 50.003220 9.513943 22,800 358 436 -2304
2021-10-04 11:29:07 GMT 50.000504 9.514160 22,850 358 436 -2368
2021-10-04 11:29:05 GMT 49.993057 9.514666 23,000 358 437 -2432
2021-10-04 11:29:03 GMT 49.993057 9.514666 23,000 358 437 -2432
2021-10-04 11:29:01 GMT 49.987015 9.515100 23,125 358 438 -2176
2021-10-04 11:28:59 GMT 49.985046 9.515244 23,150 358 438 -2176
2021-10-04 11:28:57 GMT 49.979416 9.515678 23,300 358 438 -2176
2021-10-04 11:28:54 GMT 49.973873 9.516090 23,350 358 439 -2048
2021-10-04 11:28:53 GMT 49.971920 9.516239 23,400 358 439 -2048
2021-10-04 11:28:51 GMT 49.969666 9.516401 23,425 358 440 -1984
2021-10-04 11:28:50 GMT 49.965225 9.516690 23,500 358 441 -1920
2021-10-04 11:28:48 GMT 49.963165 9.516834 23,525 358 441 -1920
2021-10-04 11:28:46 GMT 49.957077 9.517268 23,625 358 445 -1664
2021-10-04 11:28:44 GMT 49.954971 9.517413 23,650 358 445 -1664
2021-10-04 11:28:42 GMT 49.951202 9.517649 23,800 358 445 -1664
2021-10-04 11:28:39 GMT 49.945221 9.518063 23,800 358 447 -1600
2021-10-04 11:28:36 GMT 49.938450 9.518540 24,125 358 450 -1920
2021-10-04 11:28:33 GMT 49.932037 9.518931 24,125 358 450 -1920
2021-10-04 11:28:30 GMT 49.924576 9.519436 24,125 358 450 -1920
2021-10-04 11:28:26 GMT 49.911865 9.520321 24,300 358 452 -2624
2021-10-04 11:28:23 GMT 49.911865 9.520321 24,300 358 452 -2624
2021-10-04 11:28:22 GMT 49.909515 9.520448 24,325 358 452 -2624
2021-10-04 11:28:20 GMT 49.904572 9.520810 24,550 358 454 -2304
2021-10-04 11:28:16 GMT 49.888824 9.521806 25,050 358 454 -2304
2021-10-04 11:28:13 GMT 49.888824 9.521806 25,050 358 454 -2304
2021-10-04 11:28:10 GMT 49.884308 9.522103 24,900 358 454 -2304
2021-10-04 11:28:07 GMT 49.878250 9.522472 25,025 358 455 -2240
2021-10-04 11:28:04 GMT 49.871319 9.522920 25,125 358 456 -2112
2021-10-04 11:28:01 GMT 49.866028 9.523195 25,175 358 456 -2112
2021-10-04 11:28:00 GMT 49.863922 9.523340 25,200 358 456 -2048
2021-10-04 11:27:58 GMT 49.859913 9.523588 25,275 358 456 -2112
2021-10-04 11:27:56 GMT 49.855633 9.523885 25,350 358 458 -2112
2021-10-04 11:27:54 GMT 49.851486 9.524107 25,400 358 458 -2112
2021-10-04 11:27:53 GMT 49.849503 9.524279 25,450 358 458 -2112
2021-10-04 11:27:51 GMT 49.837105 9.525146 25,825 358 459 -2176
2021-10-04 11:27:48 GMT 49.837105 9.525146 25,825 357 460 -2240
2021-10-04 11:27:45 GMT 49.826248 9.525942 25,825 357 460 -2240
2021-10-04 11:27:42 GMT 49.826248 9.525942 25,825 357 461 -2240
2021-10-04 11:27:39 GMT 49.817505 9.526705 26,200 357 463 -2432
2021-10-04 11:27:36 GMT 49.805588 9.527819 26,200 357 463 -2432
2021-10-04 11:27:33 GMT 49.805588 9.527819 26,200 357 463 -2432
2021-10-04 11:27:30 GMT 49.800156 9.528399 26,300 357 463 -2560
2021-10-04 11:27:29 GMT 49.798096 9.528544 26,350 357 464 -2560
2021-10-04 11:27:28 GMT 49.791481 9.529229 26,475 357 464 -2560
2021-10-04 11:27:26 GMT 49.791481 9.529229 26,475 357 464 -2560
2021-10-04 11:27:24 GMT 49.786686 9.529749 26,525 357 465 -2432
2021-10-04 11:27:21 GMT 49.775848 9.530929 26,750 356 469 -1792
2021-10-04 11:27:19 GMT 49.775848 9.530929 26,750 356 469 -1792
2021-10-04 11:27:17 GMT 49.771957 9.531362 26,875 356 469 -1792
2021-10-04 11:27:14 GMT 49.765091 9.532085 27,000 356 469 -1792
2021-10-04 11:27:11 GMT 49.758385 9.532867 27,025 356 469 -1728
2021-10-04 11:27:09 GMT 49.754475 9.533312 27,075 356 470 -1664
2021-10-04 11:27:07 GMT 49.741699 9.534760 27,225 356 472 -1600
2021-10-04 11:27:03 GMT 49.741699 9.534760 27,225 356 474 -1600
2021-10-04 11:27:00 GMT 49.727692 9.536494 27,350 356 476 -1792
2021-10-04 11:26:57 GMT 49.727692 9.536494 27,475 356 477 -1920
2021-10-04 11:26:54 GMT 49.721279 9.537246 27,500 356 478 -2176
2021-10-04 11:26:53 GMT 49.719002 9.537543 27,525 356 478 -2304
2021-10-04 11:26:49 GMT 49.710621 9.538582 27,675 356 480 -2432
2021-10-04 11:26:47 GMT 49.703796 9.539385 27,800 356 480 -2688
2021-10-04 11:26:45 GMT 49.699635 9.539919 27,900 356 481 -2752
2021-10-04 11:26:43 GMT 49.697353 9.540216 27,925 356 481 -2752
2021-10-04 11:26:42 GMT 49.692558 9.540735 28,025 356 481 -2816
2021-10-04 11:26:40 GMT 49.690277 9.541032 28,075 356 481 -2816
2021-10-04 11:26:39 GMT 49.687912 9.541265 28,125 356 482 -2688
2021-10-04 11:26:36 GMT 49.681385 9.541997 28,250 356 482 -2688
2021-10-04 11:26:35 GMT 49.676079 9.542591 28,350 357 483 -2560
2021-10-04 11:26:31 GMT 49.669189 9.543288 28,525 357 484 -2560
2021-10-04 11:26:28 GMT 49.662766 9.543927 28,625 357 484 -2560
2021-10-04 11:26:26 GMT 49.658344 9.544373 28,700 357 483 -2496
2021-10-04 11:26:25 GMT 49.656326 9.544589 28,725 357 484 -2560
2021-10-04 11:26:24 GMT 49.649406 9.545263 28,825 357 484 -2560
2021-10-04 11:26:22 GMT 49.649406 9.545263 28,850 357 485 -2560
2021-10-04 11:26:21 GMT 49.647076 9.545486 28,900 357 485 -2624
2021-10-04 11:26:20 GMT 49.642654 9.545857 29,000 357 485 -2624
2021-10-04 11:26:18 GMT 49.640373 9.546080 29,025 357 486 -2624
2021-10-04 11:26:16 GMT 49.635315 9.546469 29,075 357 486 -2624
2021-10-04 11:26:13 GMT 49.622681 9.547481 29,325 358 487 -2624
2021-10-04 11:26:10 GMT 49.617004 9.547936 29,450 358 487 -2624
2021-10-04 11:26:07 GMT 49.617004 9.547936 29,500 358 487 -2624
2021-10-04 11:26:06 GMT 49.612793 9.548276 29,575 358 488 -2688
2021-10-04 11:26:02 GMT 49.606716 9.548678 29,675 358 488 -2624
2021-10-04 11:26:00 GMT 49.603226 9.548926 29,750 358 489 -2624
2021-10-04 11:25:59 GMT 49.597916 9.549360 29,850 358 489 -2560
2021-10-04 11:25:58 GMT 49.597916 9.549360 29,850 358 489 -2560
2021-10-04 11:25:57 GMT 49.594521 9.549569 29,925 358 490 -2496
2021-10-04 11:25:54 GMT 49.587524 9.550010 30,050 358 491 -2304
2021-10-04 11:25:53 GMT 49.585442 9.550163 30,075 358 491 -2304
2021-10-04 11:25:50 GMT 49.578415 9.550661 30,200 358 492 -2304
2021-10-04 11:25:48 GMT 49.571850 9.551053 30,300 358 493 -2432
2021-10-04 11:25:45 GMT 49.562988 9.551600 30,475 358 494 -2560
2021-10-04 11:25:43 GMT 49.562988 9.551600 30,475 358 494 -2624
2021-10-04 11:25:42 GMT 49.558163 9.551944 30,550 358 494 -2688
2021-10-04 11:25:39 GMT 49.553089 9.552241 30,650 358 494 -2816
2021-10-04 11:25:38 GMT 49.548798 9.552540 30,750 358 494 -2816
2021-10-04 11:25:35 GMT 49.544430 9.552835 30,825 358 494 -2944
2021-10-04 11:25:34 GMT 49.539913 9.553206 30,925 358 494 -2944
2021-10-04 11:25:32 GMT 49.537766 9.553335 30,975 358 494 -3008
2021-10-04 11:25:31 GMT 49.535568 9.553552 31,025 357 494 -3008
2021-10-04 11:25:28 GMT 49.528927 9.554023 31,175 357 494 -3008
2021-10-04 11:25:27 GMT 49.524319 9.554468 31,275 357 494 -3136
2021-10-04 11:25:25 GMT 49.521198 9.554765 31,325 357 493 -3264
2021-10-04 11:25:24 GMT 49.513687 9.555431 31,500 357 493 -3456
2021-10-04 11:25:22 GMT 49.513687 9.555431 31,500 357 492 -3776
2021-10-04 11:25:20 GMT 49.506630 9.556101 31,700 357 492 -3776
2021-10-04 11:25:18 GMT 49.504395 9.556324 31,750 357 491 -3968
2021-10-04 11:25:17 GMT 49.502243 9.556515 31,825 357 491 -3968
2021-10-04 11:25:15 GMT 49.497757 9.556949 31,950 357 490 -4096
2021-10-04 11:25:14 GMT 49.495422 9.557166 32,025 357 489 -4096
2021-10-04 11:25:13 GMT 49.493179 9.557310 32,075 357 489 -4096
2021-10-04 11:25:11 GMT 49.480133 9.558539 34,800 357 480 -4032
2021-10-04 11:25:07 GMT 49.480133 9.558539 33,075 357 485 -4032
2021-10-04 11:25:04 GMT 49.472488 9.559262 32,700 357 483 -4032
2021-10-04 11:25:02 GMT 49.469879 9.559479 32,775 357 481 -4032
2021-10-04 11:25:00 GMT 49.465805 9.559912 32,900 357 481 -4032
2021-10-04 11:24:59 GMT 49.463654 9.560129 32,975 357 481 -4032
2021-10-04 11:24:57 GMT 49.459377 9.560555 33,100 357 480 -4032
2021-10-04 11:24:55 GMT 49.453491 9.561213 33,450 356 477 -4096
2021-10-04 11:24:52 GMT 49.447971 9.561891 33,450 356 475 -4096
2021-10-04 11:24:51 GMT 49.445526 9.562153 33,525 355 474 -4096
2021-10-04 11:24:49 GMT 49.441635 9.562731 33,650 355 472 -4160
2021-10-04 11:24:48 GMT 49.439484 9.563020 33,700 353 470 -4224
2021-10-04 11:24:47 GMT 49.427032 9.565571 34,125 353 470 -4224
2021-10-04 11:24:43 GMT 49.427032 9.565571 34,125 349 462 -4352
2021-10-04 11:24:40 GMT 49.419113 9.568106 34,400 346 457 -4352
2021-10-04 11:24:37 GMT 49.410965 9.571557 34,600 343 452 -4224
2021-10-04 11:24:35 GMT 49.410965 9.571557 34,675 341 448 -4160
2021-10-04 11:24:34 GMT 49.409241 9.572417 34,750 341 448 -4160
2021-10-04 11:24:32 GMT 49.405659 9.574296 34,875 340 444 -4096
2021-10-04 11:24:31 GMT 49.403549 9.575500 34,950 338 440 -4032
2021-10-04 11:24:29 GMT 49.399796 9.577825 35,075 337 438 -4032
2021-10-04 11:24:28 GMT 49.398067 9.578922 35,150 336 436 -4032
2021-10-04 11:24:26 GMT 49.394485 9.581524 35,275 334 432 -3968
2021-10-04 11:24:25 GMT 49.392574 9.582897 35,350 333 431 -3968
2021-10-04 11:24:24 GMT 49.391098 9.584163 35,400 331 428 -3904
2021-10-04 11:24:22 GMT 49.386566 9.588036 35,725 327 420 -3776
2021-10-04 11:24:19 GMT 49.382538 9.591839 35,725 326 418 -3776
2021-10-04 11:24:17 GMT 49.375027 9.600244 36,025 321 410 -3584
2021-10-04 11:24:14 GMT 49.375027 9.600244 36,025 321 410 -3584
2021-10-04 11:24:13 GMT 49.373703 9.601840 36,075 319 406 -3392
2021-10-04 11:24:12 GMT 49.371918 9.604164 36,150 317 401 -3136
2021-10-04 11:24:10 GMT 49.368229 9.609423 36,350 314 396 -2368
2021-10-04 11:24:07 GMT 49.365738 9.613108 36,350 314 396 -2368
2021-10-04 11:24:04 GMT 49.361481 9.620643 36,600 307 389 -2240
2021-10-04 11:24:01 GMT 49.357662 9.628288 36,750 303 384 -2048
2021-10-04 11:23:58 GMT 49.355072 9.634517 36,750 299 379 -1984
2021-10-04 11:23:56 GMT 49.353237 9.639419 36,825 298 377 -1984
2021-10-04 11:23:55 GMT 49.352634 9.641443 36,850 295 373 -2048
2021-10-04 11:23:53 GMT 49.351135 9.645926 36,900 293 372 -2176
2021-10-04 11:23:51 GMT 49.349655 9.651417 37,000 289 366 -2176
2021-10-04 11:23:49 GMT 49.348492 9.656332 37,050 288 364 -2176
2021-10-04 11:23:48 GMT 49.347980 9.658717 37,125 287 363 -2112
2021-10-04 11:23:46 GMT 49.347427 9.661560 37,125 285 361 -2048
2021-10-04 11:23:43 GMT 49.345932 9.670209 37,325 284 361 -1664
2021-10-04 11:23:40 GMT 49.344952 9.676642 37,325 284 361 -1664
2021-10-04 11:23:39 GMT 49.344582 9.679100 37,375 283 360 -1408
2021-10-04 11:23:38 GMT 49.344162 9.681557 37,400 283 360 -1408
2021-10-04 11:23:35 GMT 49.343090 9.689002 37,450 283 362 -1088
2021-10-04 11:23:34 GMT 49.342712 9.691843 37,475 283 363 -960
2021-10-04 11:23:32 GMT 49.342018 9.696519 37,525 283 363 -832
2021-10-04 11:23:30 GMT 49.340763 9.705554 37,575 282 363 -768
2021-10-04 11:23:27 GMT 49.340057 9.710858 37,625 282 364 -704
2021-10-04 11:23:24 GMT 49.339096 9.717971 37,625 282 365 -640
2021-10-04 11:23:22 GMT 49.338455 9.722971 37,650 282 365 -320
2021-10-04 11:23:21 GMT 49.338062 9.725864 37,675 282 366 -256
2021-10-04 11:23:20 GMT 49.337505 9.730345 37,675 281 367 -192
2021-10-04 11:23:18 GMT 49.337173 9.733182 37,700 281 367 -192
2021-10-04 11:23:16 GMT 49.336578 9.737831 37,700 281 367 -192
2021-10-04 11:23:13 GMT 49.335594 9.745740 37,700 281 368 -192
2021-10-04 11:23:12 GMT 49.335270 9.748270 37,700 281 369 -256
2021-10-04 11:23:10 GMT 49.334618 9.753474 37,725 281 369 -256
2021-10-04 11:23:09 GMT 49.334244 9.756212 37,725 281 369 -256
2021-10-04 11:23:08 GMT 49.333923 9.758747 37,725 281 370 -320
2021-10-04 11:23:06 GMT 49.333176 9.764677 37,750 282 371 -384
2021-10-04 11:23:03 GMT 49.332478 9.771472 37,750 282 371 -384
2021-10-04 11:23:02 GMT 49.331825 9.775519 37,775 282 373 -384
2021-10-04 11:22:59 GMT 49.330948 9.782480 37,800 282 374 -256
2021-10-04 11:22:56 GMT 49.330078 9.789100 37,825 282 374 -256
2021-10-04 11:22:53 GMT 49.327606 9.808397 37,825 282 375 -256
2021-10-04 11:22:50 GMT 49.327606 9.808397 37,850 282 376 -256
2021-10-04 11:22:47 GMT 49.327103 9.812481 37,850 282 377 -320
2021-10-04 11:22:44 GMT 49.325912 9.821355 37,850 282 377 -320
2021-10-04 11:22:41 GMT 49.324936 9.829150 37,950 281 378 -512
2021-10-04 11:22:38 GMT 49.323944 9.837130 37,925 281 378 -896
2021-10-04 11:22:35 GMT 49.322571 9.847764 37,975 281 390 0
2021-10-04 11:22:32 GMT 49.321930 9.852905 38,000 282 387 0
2021-10-04 11:22:29 GMT 49.321060 9.859737 38,000 282 387 0
2021-10-04 11:22:26 GMT 49.320000 9.867891 38,000 282 382 64
2021-10-04 11:22:23 GMT 49.318542 9.879456 38,000 282 383 0
2021-10-04 11:22:20 GMT 49.317856 9.884667 38,000 282 385 0
2021-10-04 11:22:17 GMT 49.316849 9.892696 38,000 282 387 0
2021-10-04 11:22:14 GMT 49.315887 9.900161 37,975 282 387 0
2021-10-04 11:22:10 GMT 49.314461 9.911114 37,975 281 390 0
2021-10-04 11:22:07 GMT 49.313278 9.920513 37,975 281 389 0
2021-10-04 11:22:04 GMT 49.312408 9.927133 37,975 281 390 64
2021-10-04 11:22:01 GMT 49.310642 9.942049 37,975 279 393 64
2021-10-04 11:21:58 GMT 49.310642 9.942049 37,975 280 392 192
2021-10-04 11:21:55 GMT 49.309341 9.953754 37,975 280 391 128
2021-10-04 11:21:51 GMT 49.308289 9.964177 37,950 279 393 64
2021-10-04 11:21:49 GMT 49.307850 9.968286 37,950 279 394 128
2021-10-04 11:21:46 GMT 49.306824 9.978473 37,950 280 396 64
2021-10-04 11:21:43 GMT 49.306084 9.985199 37,975 281 398 0
2021-10-04 11:21:39 GMT 49.304947 9.995023 37,950 281 400 0
2021-10-04 11:21:36 GMT 49.303940 10.003404 37,975 281 400 0
2021-10-04 11:21:33 GMT 49.302776 10.012520 37,975 281 400 0
2021-10-04 11:21:30 GMT 49.301800 10.020254 37,975 281 400 -64
2021-10-04 11:21:27 GMT 49.299774 10.036081 37,975 281 400 -64
2021-10-04 11:21:24 GMT 49.299774 10.036081 37,975 281 400 0
2021-10-04 11:21:21 GMT 49.298401 10.047279 37,975 281 400 0
2021-10-04 11:21:18 GMT 49.297237 10.056393 37,975 281 400 0
2021-10-04 11:21:15 GMT 49.296398 10.062971 37,975 281 399 0
2021-10-04 11:21:12 GMT 49.294601 10.077632 37,975 281 399 0
2021-10-04 11:21:09 GMT 49.294601 10.077632 37,975 281 399 0
2021-10-04 11:21:06 GMT 49.293503 10.086506 37,975 281 399 64
2021-10-04 11:21:03 GMT 49.292450 10.094816 37,950 281 399 64
2021-10-04 11:21:00 GMT 49.291260 10.104253 37,950 284 401 -64
2021-10-04 11:20:57 GMT 49.290390 10.111436 38,000 284 401 -64
2021-10-04 11:20:54 GMT 49.289230 10.120577 37,950 281 399 0
2021-10-04 11:20:50 GMT 49.287556 10.133948 37,975 281 398 0
2021-10-04 11:20:47 GMT 49.286762 10.140453 37,975 281 399 -128
2021-10-04 11:20:44 GMT 49.285812 10.147916 37,975 281 399 -128
2021-10-04 11:20:41 GMT 49.284622 10.157353 38,000 281 398 -64
2021-10-04 11:20:38 GMT 49.283524 10.166227 37,975 281 398 -64
2021-10-04 11:20:35 GMT 49.282654 10.172847 37,975 281 398 0
2021-10-04 11:20:32 GMT 49.281784 10.180523 37,975 281 398 0
2021-10-04 11:20:29 GMT 49.280712 10.188663 37,975 281 398 0
2021-10-04 11:20:27 GMT 49.280014 10.194084 38,000 281 398 0
2021-10-04 11:20:24 GMT 49.278717 10.204397 37,975 281 398 -64
2021-10-04 11:20:21 GMT 49.277802 10.211440 37,975 281 398 0
2021-10-04 11:20:18 GMT 49.276382 10.222851 38,000 281 398 0
2021-10-04 11:20:15 GMT 49.275558 10.229117 38,000 282 398 0
2021-10-04 11:20:12 GMT 49.274471 10.237668 38,000 281 398 0
2021-10-04 11:20:09 GMT 49.273544 10.245103 38,000 282 398 0
2021-10-04 11:20:06 GMT 49.272655 10.251979 38,000 282 398 0
2021-10-04 11:20:03 GMT 49.271679 10.259785 38,000 281 398 -64
2021-10-04 11:20:00 GMT 49.269104 10.279823 38,000 282 398 0
2021-10-04 11:19:57 GMT 49.269104 10.279823 38,000 282 398 0
2021-10-04 11:19:54 GMT 49.267868 10.289189 38,000 282 398 0
2021-10-04 11:19:51 GMT 49.267349 10.293394 38,000 282 398 0
2021-10-04 11:19:48 GMT 49.266449 10.300246 38,000 282 398 0
2021-10-04 11:19:45 GMT 49.265118 10.310524 38,000 282 398 64
2021-10-04 11:19:42 GMT 49.264187 10.317608 38,000 282 398 0
2021-10-04 11:19:39 GMT 49.262695 10.328979 38,000 282 398 -64
2021-10-04 11:19:36 GMT 49.261597 10.337783 38,000 282 398 -64
2021-10-04 11:19:33 GMT 49.259445 10.354333 38,000 284 401 -64
2021-10-04 11:19:30 GMT 49.259445 10.354333 38,000 282 398 0
2021-10-04 11:19:27 GMT 49.258553 10.361119 38,000 281 398 0
2021-10-04 11:19:23 GMT 49.257202 10.372009 38,000 281 398 0
2021-10-04 11:19:20 GMT 49.256287 10.379052 38,000 282 398 0
2021-10-04 11:19:17 GMT 49.254868 10.390179 38,000 282 398 64
2021-10-04 11:19:14 GMT 49.253803 10.398198 38,000 282 399 0
2021-10-04 11:19:11 GMT 49.252968 10.404703 38,000 286 403 0
2021-10-04 11:19:08 GMT 49.251896 10.412437 38,000 286 403 0
2021-10-04 11:19:05 GMT 49.250687 10.420749 38,000 285 402 0
2021-10-04 11:19:02 GMT 49.247818 10.438631 38,000 285 402 -64
2021-10-04 11:18:59 GMT 49.247818 10.438631 38,000 285 403 -64
2021-10-04 11:18:56 GMT 49.246635 10.445468 38,000 286 403 0
2021-10-04 11:18:53 GMT 49.244751 10.456238 38,000 286 404 0
2021-10-04 11:18:50 GMT 49.243469 10.463351 38,000 286 404 0
2021-10-04 11:18:46 GMT 49.241821 10.472717 38,000 286 404 0
2021-10-04 11:18:43 GMT 49.239853 10.483704 38,000 286 404 0
2021-10-04 11:18:40 GMT 49.238720 10.489992 38,000 286 404 0
2021-10-04 11:18:37 GMT 49.235458 10.508423 38,000 286 404 0
2021-10-04 11:18:33 GMT 49.235458 10.508423 38,000 286 404 0
2021-10-04 11:18:30 GMT 49.233673 10.518353 38,000 286 404 0
2021-10-04 11:18:27 GMT 49.232159 10.526854 38,000 286 404 0
2021-10-04 11:18:24 GMT 49.230991 10.533431 38,000 285 402 0
2021-10-04 11:18:21 GMT 49.229324 10.543072 38,000 286 403 0
2021-10-04 11:18:18 GMT 49.227921 10.550995 38,000 285 402 0
2021-10-04 11:18:15 GMT 49.226711 10.557717 38,000 286 402 0
2021-10-04 11:18:12 GMT 49.224987 10.567547 38,000 286 402 0
2021-10-04 11:18:09 GMT 49.223732 10.574702 38,000 286 402 64
2021-10-04 11:18:06 GMT 49.220425 10.593350 38,000 285 402 0
2021-10-04 11:18:03 GMT 49.220425 10.593350 38,000 285 402 0
2021-10-04 11:18:00 GMT 49.218983 10.601590 37,975 285 402 0
2021-10-04 11:17:57 GMT 49.218201 10.606173 38,000 285 402 0
2021-10-04 11:17:55 GMT 49.216965 10.613286 38,000 285 402 0
2021-10-04 11:17:52 GMT 49.215317 10.622652 38,000 285 402 0
2021-10-04 11:17:49 GMT 49.213535 10.632814 37,975 287 404 0
2021-10-04 11:17:46 GMT 49.212700 10.637801 38,000 285 402 0
2021-10-04 11:17:43 GMT 49.211254 10.646041 38,000 286 402 0
2021-10-04 11:17:40 GMT 49.209778 10.654555 38,000 285 402 0
2021-10-04 11:17:37 GMT 49.208321 10.663027 37,975 285 402 0
2021-10-04 11:17:35 GMT 49.207169 10.669837 37,975 286 404 0
2021-10-04 11:17:32 GMT 49.205948 10.676687 37,975 285 402 0
2021-10-04 11:17:29 GMT 49.204456 10.684927 37,975 286 403 0
2021-10-04 11:17:26 GMT 49.202728 10.694486 37,975 286 404 0
2021-10-04 11:17:23 GMT 49.201527 10.700756 37,975 287 404 0
2021-10-04 11:17:20 GMT 49.199524 10.711164 37,975 288 404 0
2021-10-04 11:17:17 GMT 49.198059 10.718501 38,000 288 404 0
2021-10-04 11:17:15 GMT 49.195633 10.730544 37,975 288 404 0
2021-10-04 11:17:12 GMT 49.195633 10.730544 37,975 288 404 0
2021-10-04 11:17:09 GMT 49.193527 10.740967 37,975 288 404 0
2021-10-04 11:17:06 GMT 49.191879 10.749207 37,975 288 404 0
2021-10-04 11:17:02 GMT 49.189682 10.760122 37,975 287 405 0
2021-10-04 11:16:59 GMT 49.188263 10.767165 37,975 287 405 -64
2021-10-04 11:16:56 GMT 49.186981 10.773644 37,975 287 405 -64
2021-10-04 11:16:54 GMT 49.185699 10.780194 38,000 287 405 -64
2021-10-04 11:16:51 GMT 49.184280 10.787307 38,000 287 405 -64
2021-10-04 11:16:48 GMT 49.180950 10.804042 38,000 288 405 0
2021-10-04 11:16:45 GMT 49.180950 10.804042 38,000 287 404 -64
2021-10-04 11:16:42 GMT 49.179276 10.812209 38,000 287 404 -64
2021-10-04 11:16:39 GMT 49.175949 10.828857 38,000 287 404 0
2021-10-04 11:16:36 GMT 49.175949 10.828857 38,000 288 404 0
2021-10-04 11:16:34 GMT 49.174385 10.836784 38,000 287 404 0
2021-10-04 11:16:30 GMT 49.172607 10.845759 38,000 287 404 0
2021-10-04 11:16:27 GMT 49.170959 10.853929 38,000 287 404 0
2021-10-04 11:16:24 GMT 49.169083 10.863154 38,000 288 404 0
2021-10-04 11:16:21 GMT 49.167404 10.871622 38,000 288 404 0
2021-10-04 11:16:18 GMT 49.165604 10.880620 38,000 288 404 0
2021-10-04 11:16:15 GMT 49.164276 10.887029 38,000 288 404 0
2021-10-04 11:16:12 GMT 49.162609 10.895474 38,000 288 404 0
2021-10-04 11:16:08 GMT 49.160606 10.905376 38,000 288 404 0
2021-10-04 11:16:05 GMT 49.158920 10.913790 38,000 288 404 0
2021-10-04 11:16:02 GMT 49.157043 10.923086 38,000 288 404 0
2021-10-04 11:15:59 GMT 49.155258 10.931819 37,975 288 405 0
2021-10-04 11:15:56 GMT 49.153610 10.939988 38,000 288 405 0
2021-10-04 11:15:54 GMT 49.152832 10.943862 38,000 288 405 0
2021-10-04 11:15:51 GMT 49.151505 10.950411 37,975 288 405 0
2021-10-04 11:15:48 GMT 49.149246 10.961609 37,975 288 405 0
2021-10-04 11:15:45 GMT 49.148178 10.966957 37,975 288 405 0
2021-10-04 11:15:43 GMT 49.146652 10.974285 37,975 288 405 0
2021-10-04 11:15:40 GMT 49.145058 10.982208 37,975 288 405 0
2021-10-04 11:15:37 GMT 49.143448 10.990131 37,975 288 405 0
2021-10-04 11:15:34 GMT 49.141800 10.998300 37,975 288 405 0
2021-10-04 11:15:31 GMT 49.140076 11.006783 37,975 288 406 0
2021-10-04 11:15:28 GMT 49.138538 11.014372 37,975 288 406 0
2021-10-04 11:15:25 GMT 49.135254 11.030555 37,975 288 405 0
2021-10-04 11:15:22 GMT 49.135254 11.030555 37,975 288 405 0
2021-10-04 11:15:19 GMT 49.133465 11.039525 37,975 288 405 0
2021-10-04 11:15:16 GMT 49.130348 11.054848 37,975 288 405 0
2021-10-04 11:15:13 GMT 49.130348 11.054848 37,975 288 405 0
2021-10-04 11:15:10 GMT 49.127655 11.068092 37,975 288 405 0
2021-10-04 11:15:07 GMT 49.127041 11.071111 37,975 288 406 0
2021-10-04 11:15:04 GMT 49.125046 11.080698 37,975 288 406 0
2021-10-04 11:15:00 GMT 49.122898 11.091349 37,975 288 406 0
2021-10-04 11:14:57 GMT 49.121384 11.098727 37,975 288 406 -64
2021-10-04 11:14:54 GMT 49.119640 11.107178 37,975 288 406 -64
2021-10-04 11:14:51 GMT 49.117638 11.117008 37,975 288 406 0
2021-10-04 11:14:48 GMT 49.116009 11.125175 37,975 288 406 0
2021-10-04 11:14:45 GMT 49.114006 11.135005 37,975 288 406 0
2021-10-04 11:14:42 GMT 49.113029 11.139775 37,975 288 405 64
2021-10-04 11:14:39 GMT 49.111168 11.149027 37,975 288 406 64
2021-10-04 11:14:35 GMT 49.109070 11.159222 37,975 288 406 0
2021-10-04 11:14:32 GMT 49.106884 11.169843 37,975 288 406 0
2021-10-04 11:14:29 GMT 49.104172 11.183167 37,975 288 406 0
2021-10-04 11:14:26 GMT 49.104172 11.183167 37,975 288 406 -64
2021-10-04 11:14:23 GMT 49.100086 11.203164 37,975 288 406 -64
2021-10-04 11:14:20 GMT 49.100086 11.203164 37,975 288 406 -64
2021-10-04 11:14:17 GMT 49.098553 11.210681 37,975 288 406 -64
2021-10-04 11:14:13 GMT 49.096344 11.221407 37,975 288 406 -64
2021-10-04 11:14:10 GMT 49.094650 11.229577 37,975 288 406 0
2021-10-04 11:14:07 GMT 49.092918 11.238002 37,975 288 405 0
2021-10-04 11:14:04 GMT 49.091244 11.246097 37,975 288 406 0
2021-10-04 11:14:01 GMT 49.090126 11.251590 37,975 288 406 0
2021-10-04 11:13:58 GMT 49.088123 11.261348 37,975 288 406 0
2021-10-04 11:13:55 GMT 49.086731 11.268170 37,975 288 406 0
2021-10-04 11:13:52 GMT 49.082912 11.287007 37,975 288 406 0
2021-10-04 11:13:49 GMT 49.082912 11.287007 37,975 288 406 -64
2021-10-04 11:13:46 GMT 49.081146 11.295495 37,975 288 406 -64
2021-10-04 11:13:43 GMT 49.080303 11.299655 37,975 288 406 -64
2021-10-04 11:13:41 GMT 49.078999 11.306088 37,975 288 406 -64
2021-10-04 11:13:38 GMT 49.077347 11.314016 37,975 288 406 0
2021-10-04 11:13:35 GMT 49.075417 11.323507 38,000 288 406 -64
2021-10-04 11:13:32 GMT 49.074158 11.329579 38,000 288 406 0
2021-10-04 11:13:29 GMT 49.072083 11.339651 38,000 288 406 0
2021-10-04 11:13:26 GMT 49.070526 11.347257 38,000 288 406 0
2021-10-04 11:13:23 GMT 49.067139 11.363666 38,000 288 406 0
2021-10-04 11:13:20 GMT 49.067139 11.363666 37,975 288 406 0
2021-10-04 11:13:17 GMT 49.065582 11.371343 37,975 288 407 -128
2021-10-04 11:13:14 GMT 49.063751 11.380075 37,975 288 407 0
2021-10-04 11:13:11 GMT 49.061508 11.390991 38,000 288 408 0
2021-10-04 11:13:08 GMT 49.060425 11.396219 38,000 288 407 0
2021-10-04 11:13:05 GMT 49.056469 11.415373 38,000 288 407 -64
2021-10-04 11:13:02 GMT 49.056469 11.415373 38,000 288 407 0
2021-10-04 11:12:59 GMT 49.055420 11.420499 38,000 288 407 0
2021-10-04 11:12:56 GMT 49.053394 11.430118 38,000 288 407 64
2021-10-04 11:12:53 GMT 49.051395 11.440020 37,975 288 410 0
2021-10-04 11:12:50 GMT 49.049835 11.447402 38,000 288 408 0
2021-10-04 11:12:47 GMT 49.048279 11.454937 38,000 288 408 0
2021-10-04 11:12:44 GMT 49.046814 11.462121 38,000 288 409 0
2021-10-04 11:12:41 GMT 49.044617 11.472473 38,000 288 410 0
2021-10-04 11:12:38 GMT 49.043701 11.476840 37,975 288 410 0
2021-10-04 11:12:35 GMT 49.041641 11.486769 38,000 288 410 0
2021-10-04 11:12:32 GMT 49.040314 11.493145 37,975 288 410 0
2021-10-04 11:12:30 GMT 49.038826 11.500300 37,975 288 410 0
2021-10-04 11:12:27 GMT 49.037292 11.507615 38,000 288 409 -64
2021-10-04 11:12:24 GMT 49.034729 11.520032 38,000 288 410 0
2021-10-04 11:12:21 GMT 49.032303 11.531842 38,000 288 410 0
2021-10-04 11:12:18 GMT 49.032303 11.531842 38,000 288 410 0
2021-10-04 11:12:15 GMT 49.029701 11.544246 37,975 288 413 0
2021-10-04 11:12:12 GMT 49.027328 11.555810 38,000 288 411 0
2021-10-04 11:12:10 GMT 49.027328 11.555810 38,000 288 414 0
2021-10-04 11:12:07 GMT 49.025803 11.563251 38,000 288 411 0
2021-10-04 11:12:04 GMT 49.024021 11.571784 38,000 288 411 0
2021-10-04 11:12:01 GMT 49.022461 11.579167 37,975 288 411 0
2021-10-04 11:11:58 GMT 49.020485 11.588841 37,975 288 411 0
2021-10-04 11:11:55 GMT 49.018761 11.597081 37,975 288 411 0
2021-10-04 11:11:52 GMT 49.015224 11.614067 38,000 288 412 0
2021-10-04 11:11:49 GMT 49.013763 11.620929 37,975 288 412 0
2021-10-04 11:11:46 GMT 49.013763 11.620929 37,975 288 412 0
2021-10-04 11:11:43 GMT 49.011406 11.632353 37,975 288 412 0
2021-10-04 11:11:40 GMT 49.009686 11.640521 37,975 288 412 0
2021-10-04 11:11:37 GMT 49.007961 11.648760 37,975 288 412 0
2021-10-04 11:11:34 GMT 49.006714 11.654593 37,975 288 412 0
2021-10-04 11:11:31 GMT 49.004745 11.663959 37,975 288 412 0
2021-10-04 11:11:28 GMT 49.002686 11.673889 37,975 288 412 0
2021-10-04 11:11:24 GMT 48.999298 11.689876 37,975 288 413 0
2021-10-04 11:11:21 GMT 48.999298 11.689876 38,000 288 413 0
2021-10-04 11:11:19 GMT 48.998108 11.695510 37,975 288 413 0
2021-10-04 11:11:16 GMT 48.996185 11.704876 37,975 288 413 0
2021-10-04 11:11:13 GMT 48.994675 11.712060 37,975 288 413 0
2021-10-04 11:11:10 GMT 48.992413 11.722846 37,975 288 413 -64
2021-10-04 11:11:07 GMT 48.991196 11.728610 38,000 288 413 0
2021-10-04 11:11:04 GMT 48.989594 11.736286 38,000 288 413 0
2021-10-04 11:11:01 GMT 48.987854 11.744666 38,000 288 413 0
2021-10-04 11:10:59 GMT 48.986572 11.750723 37,975 288 413 0
2021-10-04 11:10:56 GMT 48.984734 11.759274 37,975 288 413 0
2021-10-04 11:10:53 GMT 48.980713 11.778400 37,975 288 414 0
2021-10-04 11:10:50 GMT 48.980713 11.778400 37,975 288 414 0
2021-10-04 11:10:46 GMT 48.978680 11.788113 38,000 288 416 64
2021-10-04 11:10:43 GMT 48.977283 11.794763 38,000 288 414 0
2021-10-04 11:10:40 GMT 48.975266 11.804457 38,000 288 415 0
2021-10-04 11:10:37 GMT 48.973251 11.813965 38,000 288 414 0
2021-10-04 11:10:33 GMT 48.970688 11.826219 38,000 288 414 0
2021-10-04 11:10:29 GMT 48.968811 11.834952 38,000 288 415 0
2021-10-04 11:10:26 GMT 48.967438 11.841642 38,000 288 414 0
2021-10-04 11:10:23 GMT 48.965038 11.852947 38,000 288 414 0
2021-10-04 11:10:20 GMT 48.963596 11.859669 38,000 288 414 0
2021-10-04 11:10:17 GMT 48.961853 11.868051 37,975 288 416 0
2021-10-04 11:10:14 GMT 48.959702 11.878122 38,000 288 416 -64
2021-10-04 11:10:10 GMT 48.957916 11.886573 38,000 288 416 -128
2021-10-04 11:10:07 GMT 48.956009 11.895591 38,000 288 416 0
2021-10-04 11:10:04 GMT 48.953869 11.905566 38,000 288 416 0
2021-10-04 11:10:00 GMT 48.951279 11.917701 38,000 288 416 0
2021-10-04 11:09:57 GMT 48.950096 11.923419 38,000 288 416 0
2021-10-04 11:09:54 GMT 48.947754 11.934321 38,000 288 416 64
2021-10-04 11:09:51 GMT 48.946560 11.939970 38,000 288 415 0
2021-10-04 11:09:48 GMT 48.944824 11.948195 37,975 288 417 -64
2021-10-04 11:09:45 GMT 48.940750 11.967562 37,975 288 416 0
2021-10-04 11:09:42 GMT 48.940750 11.967562 37,975 288 418 0
2021-10-04 11:09:39 GMT 48.937546 11.982563 38,000 288 417 -64
2021-10-04 11:09:36 GMT 48.937546 11.982563 38,000 288 418 -64
2021-10-04 11:09:33 GMT 48.935394 11.992845 38,000 288 418 0
2021-10-04 11:09:30 GMT 48.934269 11.998010 38,000 289 417 64
2021-10-04 11:09:27 GMT 48.932499 12.006394 38,000 288 417 64
2021-10-04 11:09:24 GMT 48.930267 12.016875 37,975 289 417 64
2021-10-04 11:09:21 GMT 48.928822 12.023669 37,975 288 419 0
2021-10-04 11:09:18 GMT 48.927109 12.031649 37,975 288 418 0
2021-10-04 11:09:15 GMT 48.925552 12.038903 37,975 288 418 0
2021-10-04 11:09:12 GMT 48.922913 12.051279 37,975 288 418 0
2021-10-04 11:09:09 GMT 48.921421 12.058146 37,975 288 418 0
2021-10-04 11:09:06 GMT 48.919838 12.065518 37,975 288 419 0
2021-10-04 11:09:03 GMT 48.918045 12.073904 37,975 288 419 0
2021-10-04 11:09:00 GMT 48.915882 12.084238 37,975 288 419 0
2021-10-04 11:08:57 GMT 48.914703 12.089679 37,975 288 419 -128
2021-10-04 11:08:54 GMT 48.909924 12.112354 37,975 288 418 0
2021-10-04 11:08:50 GMT 48.909924 12.112354 37,975 288 419 0
2021-10-04 11:08:47 GMT 48.908478 12.119258 37,975 288 418 0
2021-10-04 11:08:44 GMT 48.907364 12.124714 37,975 288 418 0
2021-10-04 11:08:41 GMT 48.905548 12.133315 37,975 288 418 0
2021-10-04 11:08:38 GMT 48.901199 12.154048 37,975 288 418 -64
2021-10-04 11:08:35 GMT 48.901199 12.154048 37,975 288 418 0
2021-10-04 11:08:32 GMT 48.900005 12.159769 37,975 288 418 0
2021-10-04 11:08:28 GMT 48.897400 12.171936 37,975 289 419 0
2021-10-04 11:08:25 GMT 48.895157 12.182500 38,000 289 419 0
2021-10-04 11:08:22 GMT 48.893967 12.187993 38,000 289 419 0
2021-10-04 11:08:18 GMT 48.891163 12.200606 37,975 289 419 0
2021-10-04 11:08:15 GMT 48.889664 12.207430 37,975 290 419 0
2021-10-04 11:08:12 GMT 48.887329 12.217572 37,975 290 419 0
2021-10-04 11:08:09 GMT 48.885529 12.225687 38,000 290 419 -64
2021-10-04 11:08:06 GMT 48.883987 12.232502 38,000 289 420 -128
2021-10-04 11:08:03 GMT 48.882408 12.239275 38,000 289 420 -128
2021-10-04 11:08:00 GMT 48.880314 12.248455 38,000 289 420 0
2021-10-04 11:07:57 GMT 48.877579 12.260531 38,000 289 420 0
2021-10-04 11:07:54 GMT 48.876221 12.266669 38,000 290 421 64
2021-10-04 11:07:51 GMT 48.872215 12.284016 38,000 289 420 64
2021-10-04 11:07:48 GMT 48.872215 12.284016 38,000 289 420 64
2021-10-04 11:07:45 GMT 48.870304 12.292400 37,975 289 420 0
2021-10-04 11:07:41 GMT 48.867554 12.304547 37,975 290 421 0
2021-10-04 11:07:38 GMT 48.866722 12.308229 38,000 290 422 -64
2021-10-04 11:07:35 GMT 48.862106 12.328350 38,000 290 422 -64
2021-10-04 11:07:32 GMT 48.862106 12.328350 38,000 290 422 64
2021-10-04 11:07:29 GMT 48.860157 12.337068 38,000 290 422 0
2021-10-04 11:07:26 GMT 48.856064 12.354993 38,000 290 422 0
2021-10-04 11:07:23 GMT 48.856064 12.354993 38,000 290 422 64
2021-10-04 11:07:20 GMT 48.854107 12.363522 38,000 290 422 0
2021-10-04 11:07:17 GMT 48.852676 12.369760 38,000 290 422 64
2021-10-04 11:07:14 GMT 48.850708 12.378211 38,000 290 423 64
2021-10-04 11:07:11 GMT 48.849171 12.384989 38,000 290 422 0
2021-10-04 11:07:08 GMT 48.846771 12.395325 37,975 290 422 0
2021-10-04 11:07:04 GMT 48.843887 12.407720 37,975 290 422 0
2021-10-04 11:07:01 GMT 48.842377 12.414479 37,975 290 423 -64
2021-10-04 11:06:58 GMT 48.840561 12.422068 38,000 290 423 0
2021-10-04 11:06:55 GMT 48.838699 12.430163 38,000 290 423 0
2021-10-04 11:06:52 GMT 48.836792 12.438566 38,000 290 422 0
2021-10-04 11:06:49 GMT 48.834503 12.448496 38,000 290 421 0
2021-10-04 11:06:46 GMT 48.832367 12.457773 38,000 290 422 0
2021-10-04 11:06:43 GMT 48.830887 12.464060 38,000 290 422 0
2021-10-04 11:06:40 GMT 48.828644 12.473891 38,000 290 421 0
2021-10-04 11:06:36 GMT 48.826176 12.484950 34,975 290 421 0
2021-10-04 11:06:33 GMT 48.822868 12.498827 38,000 290 421 0
2021-10-04 11:06:30 GMT 48.822868 12.498827 38,000 290 421 0
2021-10-04 11:06:27 GMT 48.820263 12.510103 38,000 290 421 0
2021-10-04 11:06:24 GMT 48.818123 12.519788 38,000 290 421 0
2021-10-04 11:06:21 GMT 48.816193 12.527794 38,000 290 421 0
2021-10-04 11:06:18 GMT 48.812443 12.544002 38,000 290 422 -128
2021-10-04 11:06:15 GMT 48.812443 12.544002 38,000 290 422 -128
2021-10-04 11:06:12 GMT 48.810608 12.552021 38,000 290 422 -192
2021-10-04 11:06:09 GMT 48.808914 12.559415 38,025 290 421 -192
2021-10-04 11:06:05 GMT 48.805801 12.572867 38,025 290 421 0
2021-10-04 11:06:02 GMT 48.804657 12.577726 38,025 290 421 0
2021-10-04 11:05:59 GMT 48.802620 12.586718 38,025 290 420 64
2021-10-04 11:05:56 GMT 48.800243 12.596837 38,025 290 421 64
2021-10-04 11:05:51 GMT 48.796967 12.611037 38,025 290 421 64
2021-10-04 11:05:48 GMT 48.795078 12.619099 38,025 290 421 0
2021-10-04 11:05:45 GMT 48.793819 12.624592 38,025 290 421 0
2021-10-04 11:05:42 GMT 48.791519 12.634489 38,025 290 421 0
2021-10-04 11:05:39 GMT 48.789818 12.641867 38,025 290 421 0
2021-10-04 11:05:36 GMT 48.787769 12.650757 38,025 290 421 0
2021-10-04 11:05:33 GMT 48.785255 12.661526 38,025 290 421 0
2021-10-04 11:05:30 GMT 48.784515 12.664631 38,025 290 421 0
2021-10-04 11:05:27 GMT 48.782089 12.675259 38,000 290 421 0
2021-10-04 11:05:24 GMT 48.779762 12.685234 38,000 290 421 0
2021-10-04 11:05:21 GMT 48.778320 12.691450 38,000 290 421 0
2021-10-04 11:05:17 GMT 48.774765 12.706815 38,000 290 422 128
2021-10-04 11:05:14 GMT 48.773663 12.711471 38,000 290 422 64
2021-10-04 11:05:11 GMT 48.771286 12.721605 38,000 290 422 128
2021-10-04 11:05:08 GMT 48.769894 12.727444 38,000 290 422 128
2021-10-04 11:05:05 GMT 48.767284 12.738575 37,975 290 422 192
2021-10-04 11:05:02 GMT 48.765984 12.744068 37,975 290 422 192
2021-10-04 11:04:59 GMT 48.761700 12.762355 37,975 290 423 0
2021-10-04 11:04:56 GMT 48.761700 12.762355 37,975 290 423 0
2021-10-04 11:04:52 GMT 48.759232 12.773052 37,950 290 423 0
2021-10-04 11:04:49 GMT 48.756821 12.783297 37,950 290 423 0
2021-10-04 11:04:46 GMT 48.755264 12.790058 37,975 290 423 0
2021-10-04 11:04:43 GMT 48.753181 12.798928 37,950 290 422 0
2021-10-04 11:04:40 GMT 48.751099 12.807805 37,950 290 422 0
2021-10-04 11:04:37 GMT 48.746933 12.825693 37,950 290 422 0
2021-10-04 11:04:34 GMT 48.746933 12.825693 37,950 290 422 0
2021-10-04 11:04:31 GMT 48.745285 12.832736 37,950 290 422 0
2021-10-04 11:04:28 GMT 48.743034 12.842295 37,950 290 422 0
2021-10-04 11:04:25 GMT 48.741302 12.849708 37,975 290 422 0
2021-10-04 11:04:22 GMT 48.739868 12.855955 37,950 290 422 0
2021-10-04 11:04:18 GMT 48.737213 12.867159 37,975 290 421 -192
2021-10-04 11:04:15 GMT 48.735027 12.876555 37,950 290 421 -128
2021-10-04 11:04:12 GMT 48.731644 12.891048 37,975 290 420 -64
2021-10-04 11:04:09 GMT 48.728714 12.903442 37,975 290 421 -64
2021-10-04 11:04:06 GMT 48.728714 12.903442 37,975 290 420 0
2021-10-04 11:04:03 GMT 48.727112 12.910381 37,975 290 420 0
2021-10-04 11:04:00 GMT 48.723404 12.926119 37,975 290 420 64
2021-10-04 11:03:57 GMT 48.723404 12.926119 37,975 290 420 0
2021-10-04 11:03:54 GMT 48.721207 12.935275 37,975 290 420 0
2021-10-04 11:03:51 GMT 48.719513 12.942388 37,975 290 420 -64
2021-10-04 11:03:48 GMT 48.718082 12.948400 37,975 290 420 0
2021-10-04 11:03:45 GMT 48.715473 12.959530 37,975 290 421 -64
2021-10-04 11:03:42 GMT 48.713520 12.967770 37,975 290 421 -64
2021-10-04 11:03:39 GMT 48.711273 12.977459 37,975 290 420 -64
2021-10-04 11:03:36 GMT 48.707977 12.991403 37,975 290 421 0
2021-10-04 11:03:33 GMT 48.707977 12.991403 37,975 290 420 -64
2021-10-04 11:03:30 GMT 48.705276 13.002953 38,000 290 420 -64
2021-10-04 11:03:26 GMT 48.702904 13.013161 38,000 290 421 0
2021-10-04 11:03:23 GMT 48.701523 13.019081 38,000 290 421 -128
2021-10-04 11:03:20 GMT 48.699368 13.028123 38,000 290 421 -128
2021-10-04 11:03:17 GMT 48.694702 13.047814 38,000 290 421 0
2021-10-04 11:03:14 GMT 48.694702 13.047814 38,000 290 421 0
2021-10-04 11:03:10 GMT 48.692780 13.056124 38,000 290 421 0
2021-10-04 11:03:07 GMT 48.688240 13.075176 38,000 290 421 0
2021-10-04 11:03:04 GMT 48.687168 13.079730 38,000 290 421 0
2021-10-04 11:03:01 GMT 48.687168 13.079730 38,000 290 422 -64
2021-10-04 11:02:58 GMT 48.685135 13.088308 38,000 290 422 -64
2021-10-04 11:02:55 GMT 48.682980 13.097510 38,025 290 422 -64
2021-10-04 11:02:52 GMT 48.679722 13.111243 38,025 290 422 -64
2021-10-04 11:02:49 GMT 48.679092 13.113873 38,025 290 422 0
2021-10-04 11:02:46 GMT 48.677208 13.121796 38,025 290 422 0
2021-10-04 11:02:43 GMT 48.674377 13.133803 38,025 290 422 -64
2021-10-04 11:02:40 GMT 48.672321 13.142467 38,025 290 423 -64
2021-10-04 11:02:37 GMT 48.671219 13.147043 38,025 290 423 -64
2021-10-04 11:02:34 GMT 48.668976 13.156480 38,025 290 423 0
2021-10-04 11:02:31 GMT 48.667294 13.163428 38,025 290 422 0
2021-10-04 11:02:28 GMT 48.664444 13.175354 38,025 290 422 0
2021-10-04 11:02:24 GMT 48.662750 13.182537 38,025 290 422 0
2021-10-04 11:02:21 GMT 48.660507 13.191974 38,025 290 422 0
2021-10-04 11:02:17 GMT 48.657749 13.203470 38,025 290 422 64
2021-10-04 11:02:14 GMT 48.655975 13.210848 38,025 290 422 64
2021-10-04 11:02:11 GMT 48.654419 13.217539 38,025 290 422 0
2021-10-04 11:02:08 GMT 48.652115 13.227178 38,000 290 422 64
2021-10-04 11:02:05 GMT 48.650253 13.234984 38,000 290 423 0
2021-10-04 11:02:02 GMT 48.648193 13.243596 38,000 290 423 0
2021-10-04 11:01:59 GMT 48.646111 13.252475 38,000 290 424 0
2021-10-04 11:01:56 GMT 48.643570 13.263033 38,000 290 424 64
2021-10-04 11:01:53 GMT 48.641644 13.271123 38,000 290 424 0
2021-10-04 11:01:50 GMT 48.640430 13.276182 38,000 290 424 0
2021-10-04 11:01:47 GMT 48.637638 13.287819 38,000 290 424 0
2021-10-04 11:01:44 GMT 48.635696 13.295851 38,000 290 424 0
2021-10-04 11:01:40 GMT 48.633865 13.303598 38,000 290 423 64
2021-10-04 11:01:37 GMT 48.631210 13.314725 38,000 290 423 0
2021-10-04 11:01:34 GMT 48.629333 13.322472 38,000 290 423 64
2021-10-04 11:01:31 GMT 48.627769 13.328946 38,000 291 423 64
2021-10-04 11:01:28 GMT 48.624939 13.340783 37,975 291 423 0
2021-10-04 11:01:25 GMT 48.622974 13.348822 37,975 291 423 0
2021-10-04 11:01:21 GMT 48.621048 13.356910 37,975 290 424 0
2021-10-04 11:01:18 GMT 48.618759 13.366347 37,975 290 424 0
2021-10-04 11:01:15 GMT 48.616653 13.375221 37,975 290 424 0
2021-10-04 11:01:12 GMT 48.614639 13.383531 37,975 290 424 0
2021-10-04 11:01:09 GMT 48.612732 13.391683 37,975 290 423 0
2021-10-04 11:01:06 GMT 48.610291 13.401841 37,975 290 423 0
2021-10-04 11:01:03 GMT 48.609009 13.407223 37,975 290 423 0
2021-10-04 11:01:00 GMT 48.607086 13.415152 37,975 291 422 0
2021-10-04 11:00:57 GMT 48.604019 13.427899 37,975 291 423 0
2021-10-04 11:00:54 GMT 48.602829 13.432899 37,975 291 422 0
2021-10-04 11:00:51 GMT 48.600208 13.443796 37,975 291 423 0
2021-10-04 11:00:47 GMT 48.598209 13.452108 37,975 291 422 0
2021-10-04 11:00:44 GMT 48.596298 13.459842 37,975 290 423 0
2021-10-04 11:00:41 GMT 48.591877 13.478129 37,975 291 423 -64
2021-10-04 11:00:37 GMT 48.591877 13.478129 37,975 290 423 0
2021-10-04 11:00:34 GMT 48.588852 13.490777 37,975 290 422 -64
2021-10-04 11:00:31 GMT 48.587269 13.497499 37,975 289 422 -64
2021-10-04 11:00:28 GMT 48.584885 13.508254 37,975 288 420 -64
2021-10-04 11:00:25 GMT 48.583649 13.513958 37,975 287 420 0
2021-10-04 11:00:22 GMT 48.581909 13.522339 37,975 287 420 0
2021-10-04 11:00:19 GMT 48.580284 13.530386 37,975 287 420 0
2021-10-04 11:00:16 GMT 48.578983 13.537108 37,975 287 420 0
2021-10-04 11:00:13 GMT 48.576607 13.548961 38,000 287 420 -64
2021-10-04 11:00:10 GMT 48.575256 13.555611 38,000 287 420 -64
2021-10-04 11:00:06 GMT 48.573166 13.566236 38,000 287 420 -64
2021-10-04 11:00:03 GMT 48.570885 13.577584 38,000 287 420 -64
2021-10-04 10:59:59 GMT 48.569046 13.586778 38,000 287 421 0
2021-10-04 10:59:56 GMT 48.567669 13.593774 38,000 287 420 0
2021-10-04 10:59:53 GMT 48.565384 13.605229 38,000 287 420 -64
2021-10-04 10:59:50 GMT 48.563854 13.612783 38,000 287 420 -64
2021-10-04 10:59:46 GMT 48.560177 13.631359 38,025 287 420 0
2021-10-04 10:59:43 GMT 48.560177 13.631359 38,025 287 419 0
2021-10-04 10:59:40 GMT 48.557941 13.642418 38,025 287 420 64
2021-10-04 10:59:37 GMT 48.556870 13.647837 38,025 287 421 0
2021-10-04 10:59:34 GMT 48.555099 13.656512 38,025 287 421 -64
2021-10-04 10:59:31 GMT 48.553890 13.662583 38,025 287 421 -64
2021-10-04 10:59:28 GMT 48.551655 13.673786 38,025 287 421 -64
2021-10-04 10:59:25 GMT 48.550140 13.681288 38,025 287 420 0
2021-10-04 10:59:22 GMT 48.548447 13.689740 38,025 287 420 0
2021-10-04 10:59:19 GMT 48.546349 13.700096 38,025 287 420 64
2021-10-04 10:59:16 GMT 48.544579 13.708769 38,025 287 421 0
2021-10-04 10:59:13 GMT 48.543274 13.715445 38,025 287 421 0
2021-10-04 10:59:10 GMT 48.541672 13.723262 38,025 287 421 0
2021-10-04 10:59:06 GMT 48.538879 13.737347 38,025 287 421 0
2021-10-04 10:59:03 GMT 48.537689 13.743174 38,025 287 421 64
2021-10-04 10:59:00 GMT 48.536041 13.751291 38,025 287 421 64
2021-10-04 10:58:57 GMT 48.534348 13.759672 38,000 287 421 128
2021-10-04 10:58:54 GMT 48.532196 13.770376 38,000 287 421 128
2021-10-04 10:58:51 GMT 48.531097 13.776010 38,000 287 421 64
2021-10-04 10:58:48 GMT 48.529037 13.786011 38,000 287 421 0
2021-10-04 10:58:45 GMT 48.526379 13.799190 38,000 287 421 0
2021-10-04 10:58:42 GMT 48.525558 13.803406 38,000 287 421 -64
2021-10-04 10:58:39 GMT 48.524239 13.809959 38,000 288 420 64
2021-10-04 10:58:36 GMT 48.521805 13.821857 37,975 288 420 192
2021-10-04 10:58:33 GMT 48.520512 13.828390 37,975 288 420 128
2021-10-04 10:58:30 GMT 48.519333 13.834182 37,975 288 420 0
2021-10-04 10:58:27 GMT 48.516907 13.846013 37,950 287 421 0
2021-10-04 10:58:24 GMT 48.512924 13.865591 37,950 287 421 -64
2021-10-04 10:58:20 GMT 48.512924 13.865591 37,950 288 419 0
2021-10-04 10:58:17 GMT 48.511826 13.871084 37,950 288 419 0
2021-10-04 10:58:14 GMT 48.509575 13.882165 37,975 288 420 -128
2021-10-04 10:58:10 GMT 48.505325 13.902987 37,975 288 419 64
2021-10-04 10:58:07 GMT 48.505325 13.902987 37,975 288 420 0
2021-10-04 10:58:04 GMT 48.503895 13.909992 37,975 288 419 64
2021-10-04 10:58:01 GMT 48.502312 13.917871 37,975 288 419 64
2021-10-04 10:57:57 GMT 48.499935 13.929435 37,975 288 419 0
2021-10-04 10:57:54 GMT 48.498493 13.936519 37,950 288 419 0
2021-10-04 10:57:51 GMT 48.496399 13.947003 37,950 288 419 0
2021-10-04 10:57:48 GMT 48.495514 13.951191 37,950 288 419 0
2021-10-04 10:57:45 GMT 48.492954 13.963984 37,950 288 418 -64
2021-10-04 10:57:42 GMT 48.491592 13.970454 37,975 288 419 0
2021-10-04 10:57:38 GMT 48.489510 13.980753 37,975 288 419 -64
2021-10-04 10:57:35 GMT 48.488113 13.987708 37,975 288 418 -64
2021-10-04 10:57:32 GMT 48.485786 13.999112 37,975 288 418 -64
2021-10-04 10:57:29 GMT 48.483810 14.008766 37,975 288 418 -64
2021-10-04 10:57:26 GMT 48.482944 14.012917 37,975 288 418 0
2021-10-04 10:57:23 GMT 48.481037 14.022385 37,975 288 418 0
2021-10-04 10:57:20 GMT 48.478775 14.033274 37,975 288 418 -128
2021-10-04 10:57:17 GMT 48.477730 14.038504 37,975 288 417 0
2021-10-04 10:57:14 GMT 48.476009 14.046816 37,975 288 418 0
2021-10-04 10:57:11 GMT 48.473961 14.056790 37,975 288 418 0
2021-10-04 10:57:07 GMT 48.471447 14.069150 37,975 288 418 -64
2021-10-04 10:57:04 GMT 48.470188 14.075076 37,975 288 418 -128
2021-10-04 10:57:01 GMT 48.466793 14.091773 38,000 288 418 0
2021-10-04 10:56:58 GMT 48.464882 14.101169 38,000 288 417 0
2021-10-04 10:56:55 GMT 48.464882 14.101169 38,000 288 418 0
2021-10-04 10:56:52 GMT 48.461811 14.116203 38,000 288 417 0
2021-10-04 10:56:49 GMT 48.461811 14.116203 38,000 288 417 0
2021-10-04 10:56:46 GMT 48.459686 14.126446 38,000 288 417 0
2021-10-04 10:56:43 GMT 48.458771 14.130953 38,000 288 417 0
2021-10-04 10:56:40 GMT 48.456619 14.141517 38,000 288 417 64
2021-10-04 10:56:37 GMT 48.454735 14.150535 38,000 288 418 0
2021-10-04 10:56:34 GMT 48.453049 14.158701 38,000 288 418 0
2021-10-04 10:56:31 GMT 48.451263 14.167574 37,975 288 418 0
2021-10-04 10:56:28 GMT 48.449474 14.176194 37,975 288 418 0
2021-10-04 10:56:25 GMT 48.448124 14.182844 37,975 288 418 64
2021-10-04 10:56:22 GMT 48.445843 14.193685 37,975 288 418 0
2021-10-04 10:56:19 GMT 48.444820 14.198817 37,975 288 419 0
2021-10-04 10:56:16 GMT 48.442566 14.209759 37,975 288 419 0
2021-10-04 10:56:13 GMT 48.441238 14.216309 37,975 288 419 0
2021-10-04 10:56:10 GMT 48.439133 14.226379 37,975 288 420 0
2021-10-04 10:56:07 GMT 48.437370 14.235029 37,975 288 420 0
2021-10-04 10:56:03 GMT 48.435650 14.243268 37,975 288 420 0
2021-10-04 10:56:00 GMT 48.433323 14.254544 37,975 288 419 0
2021-10-04 10:55:56 GMT 48.431671 14.262508 37,975 288 419 -64
2021-10-04 10:55:53 GMT 48.429176 14.274565 37,975 288 419 -64
2021-10-04 10:55:50 GMT 48.426270 14.288706 38,000 288 420 -64
2021-10-04 10:55:47 GMT 48.426270 14.288706 38,000 288 419 0
2021-10-04 10:55:44 GMT 48.424614 14.296682 38,000 288 419 0
2021-10-04 10:55:41 GMT 48.422894 14.305067 38,000 288 419 0
2021-10-04 10:55:38 GMT 48.421097 14.313707 38,000 288 419 0
2021-10-04 10:55:35 GMT 48.419403 14.322087 38,000 288 419 -64
2021-10-04 10:55:32 GMT 48.415741 14.339834 38,000 288 418 -64
2021-10-04 10:55:29 GMT 48.415741 14.339834 38,000 288 420 -64
2021-10-04 10:55:26 GMT 48.412033 14.357652 38,000 288 419 0
2021-10-04 10:55:22 GMT 48.412033 14.357652 38,000 288 419 0
2021-10-04 10:55:19 GMT 48.409672 14.369033 38,000 288 419 0
2021-10-04 10:55:16 GMT 48.408508 14.374598 38,000 288 419 0
2021-10-04 10:55:13 GMT 48.406036 14.386526 38,000 288 419 0
2021-10-04 10:55:10 GMT 48.404690 14.392885 38,000 288 419 0
2021-10-04 10:55:06 GMT 48.402557 14.403147 38,000 288 419 0
2021-10-04 10:55:03 GMT 48.400406 14.413147 37,975 288 420 0
2021-10-04 10:55:00 GMT 48.399197 14.418977 37,975 288 420 0
2021-10-04 10:54:57 GMT 48.395187 14.438148 37,975 288 420 0
2021-10-04 10:54:54 GMT 48.395187 14.438148 37,975 288 420 0
2021-10-04 10:54:51 GMT 48.394169 14.442974 37,975 288 420 0
2021-10-04 10:54:48 GMT 48.392258 14.452092 37,975 288 420 0
2021-10-04 10:54:45 GMT 48.390747 14.459346 37,975 288 420 0
2021-10-04 10:54:42 GMT 48.388321 14.470966 37,975 288 420 0
2021-10-04 10:54:39 GMT 48.386864 14.478029 37,975 288 420 0
2021-10-04 10:54:36 GMT 48.383286 14.494911 37,975 288 420 0
2021-10-04 10:54:33 GMT 48.383286 14.494911 37,975 288 420 0
2021-10-04 10:54:30 GMT 48.381741 14.502387 37,975 288 420 0
2021-10-04 10:54:27 GMT 48.379898 14.510968 37,975 288 420 0
2021-10-04 10:54:24 GMT 48.378109 14.520167 37,975 288 420 0
2021-10-04 10:54:21 GMT 48.376785 14.525968 37,975 288 420 0
2021-10-04 10:54:18 GMT 48.374619 14.536285 37,975 288 420 -64
2021-10-04 10:54:15 GMT 48.372345 14.547096 37,975 288 420 0
2021-10-04 10:54:12 GMT 48.371498 14.551319 37,975 288 420 -64
2021-10-04 10:54:09 GMT 48.369034 14.563028 37,975 288 420 0
2021-10-04 10:54:06 GMT 48.367775 14.569100 37,975 288 420 0
2021-10-04 10:54:03 GMT 48.365845 14.578224 37,975 288 420 0
2021-10-04 10:54:00 GMT 48.363968 14.587097 37,975 288 420 0
2021-10-04 10:53:56 GMT 48.360092 14.605745 37,975 288 420 0
2021-10-04 10:53:53 GMT 48.360092 14.605745 37,975 288 420 0
2021-10-04 10:53:50 GMT 48.358521 14.613225 37,975 288 420 0
2021-10-04 10:53:47 GMT 48.355949 14.625260 37,975 288 420 0
2021-10-04 10:53:44 GMT 48.354630 14.631606 37,975 288 420 0
2021-10-04 10:53:41 GMT 48.352890 14.639916 37,975 288 420 0
2021-10-04 10:53:37 GMT 48.350555 14.650973 37,975 288 420 0
2021-10-04 10:53:34 GMT 48.349045 14.658227 37,975 288 420 -64
2021-10-04 10:53:31 GMT 48.347198 14.666820 37,975 288 420 -64
2021-10-04 10:53:28 GMT 48.344963 14.677518 38,000 288 420 -64
2021-10-04 10:53:25 GMT 48.343102 14.686336 38,000 288 420 -64
2021-10-04 10:53:21 GMT 48.341446 14.694355 38,000 288 420 0
2021-10-04 10:53:17 GMT 48.339100 14.705272 38,000 288 420 0
2021-10-04 10:53:14 GMT 48.337326 14.713792 38,000 288 420 0
2021-10-04 10:53:11 GMT 48.335632 14.721680 38,000 288 420 0
2021-10-04 10:53:07 GMT 48.332840 14.734920 38,000 288 420 0
2021-10-04 10:53:04 GMT 48.331558 14.740906 38,000 288 421 0
2021-10-04 10:53:01 GMT 48.329407 14.750906 38,000 288 421 0
2021-10-04 10:52:57 GMT 48.326668 14.764035 38,000 288 421 -64
2021-10-04 10:52:54 GMT 48.325459 14.769673 38,000 288 421 -64
2021-10-04 10:52:51 GMT 48.323597 14.778635 38,025 288 421 -64
2021-10-04 10:52:48 GMT 48.322083 14.785485 38,025 288 421 -64
2021-10-04 10:52:45 GMT 48.319595 14.797500 38,025 288 421 0
2021-10-04 10:52:42 GMT 48.318615 14.802053 38,025 288 421 0
2021-10-04 10:52:39 GMT 48.316380 14.812606 38,025 288 421 0
2021-10-04 10:52:36 GMT 48.314529 14.821050 38,025 288 421 0
2021-10-04 10:52:33 GMT 48.312565 14.830387 38,025 288 422 0
2021-10-04 10:52:30 GMT 48.311371 14.836121 38,025 288 422 0
2021-10-04 10:52:27 GMT 48.307526 14.854009 38,025 288 422 0
2021-10-04 10:52:24 GMT 48.307526 14.854009 38,025 288 423 0
2021-10-04 10:52:21 GMT 48.305786 14.862319 38,025 288 423 0
2021-10-04 10:52:18 GMT 48.304321 14.869080 38,025 288 423 0
2021-10-04 10:52:14 GMT 48.301987 14.880136 38,025 288 423 0
2021-10-04 10:52:11 GMT 48.300137 14.888715 38,025 288 423 0
2021-10-04 10:52:08 GMT 48.298279 14.897461 38,025 288 423 0
2021-10-04 10:52:05 GMT 48.296127 14.907391 38,025 288 424 0
2021-10-04 10:52:02 GMT 48.294113 14.916898 38,025 288 423 0
2021-10-04 10:51:59 GMT 48.293289 14.920772 38,025 288 423 0
2021-10-04 10:51:56 GMT 48.291103 14.931143 38,000 288 422 64
2021-10-04 10:51:53 GMT 48.289288 14.939527 38,000 288 423 64
2021-10-04 10:51:50 GMT 48.287148 14.949501 38,000 288 423 64
2021-10-04 10:51:47 GMT 48.286240 14.953801 38,000 288 423 64
2021-10-04 10:51:44 GMT 48.283264 14.967604 38,000 288 423 128
2021-10-04 10:51:41 GMT 48.282211 14.972486 38,000 288 424 128
2021-10-04 10:51:38 GMT 48.278629 14.989182 37,975 288 424 0
2021-10-04 10:51:35 GMT 48.278629 14.989182 37,975 288 424 128
2021-10-04 10:51:32 GMT 48.276161 15.000964 37,975 288 424 0
2021-10-04 10:51:28 GMT 48.274532 15.008553 37,975 288 424 0
2021-10-04 10:51:25 GMT 48.272671 15.017154 37,975 288 424 0
2021-10-04 10:51:22 GMT 48.270901 15.025394 37,975 288 424 0
2021-10-04 10:51:19 GMT 48.267609 15.040706 37,975 288 424 0
2021-10-04 10:51:16 GMT 48.267609 15.040706 37,975 288 424 0
2021-10-04 10:51:13 GMT 48.265594 15.050284 37,975 288 424 -64
2021-10-04 10:51:10 GMT 48.263081 15.061822 37,975 288 424 -64
2021-10-04 10:51:07 GMT 48.261913 15.067243 37,975 288 424 0
2021-10-04 10:51:04 GMT 48.260193 15.075411 37,975 288 423 0
2021-10-04 10:51:01 GMT 48.258133 15.084862 37,975 288 423 0
2021-10-04 10:50:58 GMT 48.256187 15.093986 37,975 288 423 0
2021-10-04 10:50:54 GMT 48.253693 15.105567 37,975 288 423 0
2021-10-04 10:50:51 GMT 48.252502 15.111061 37,975 288 423 0
2021-10-04 10:50:48 GMT 48.250443 15.120497 37,975 289 423 0
2021-10-04 10:50:45 GMT 48.246136 15.140823 37,975 288 423 0
2021-10-04 10:50:41 GMT 48.246136 15.140823 37,975 288 423 0
2021-10-04 10:50:38 GMT 48.242432 15.157823 37,975 288 423 -64
2021-10-04 10:50:35 GMT 48.242432 15.157823 37,975 288 423 -64
2021-10-04 10:50:32 GMT 48.240509 15.166767 37,975 288 422 0
2021-10-04 10:50:29 GMT 48.239273 15.172330 37,975 289 422 0
2021-10-04 10:50:26 GMT 48.237198 15.182021 37,975 289 422 0
2021-10-04 10:50:22 GMT 48.234123 15.196043 37,975 289 423 0
2021-10-04 10:50:19 GMT 48.232960 15.201464 37,975 289 422 0
2021-10-04 10:50:16 GMT 48.231144 15.209776 37,975 289 422 0
2021-10-04 10:50:13 GMT 48.229477 15.217332 37,975 289 422 0
2021-10-04 10:50:10 GMT 48.227001 15.228713 37,975 289 422 0
2021-10-04 10:50:07 GMT 48.225723 15.234516 37,975 289 422 0
2021-10-04 10:50:04 GMT 48.223892 15.242826 38,000 289 423 -64
2021-10-04 10:50:01 GMT 48.221554 15.253722 37,975 289 422 0
2021-10-04 10:49:58 GMT 48.220531 15.258203 37,975 288 422 0
2021-10-04 10:49:55 GMT 48.217987 15.270081 37,975 289 422 0
2021-10-04 10:49:52 GMT 48.216480 15.277067 37,975 289 422 0
2021-10-04 10:49:49 GMT 48.214523 15.285958 37,975 289 422 0
2021-10-04 10:49:45 GMT 48.212849 15.293764 37,975 289 422 0
2021-10-04 10:49:42 GMT 48.210663 15.303738 37,975 289 422 0
2021-10-04 10:49:39 GMT 48.209152 15.310716 37,975 289 422 0
2021-10-04 10:49:36 GMT 48.206772 15.321702 37,975 289 422 0
2021-10-04 10:49:33 GMT 48.204285 15.333156 37,975 289 422 0
2021-10-04 10:49:30 GMT 48.202881 15.339520 37,975 289 422 0
2021-10-04 10:49:27 GMT 48.201279 15.346844 37,975 289 422 0
2021-10-04 10:49:24 GMT 48.199677 15.354333 37,975 289 423 -64
2021-10-04 10:49:21 GMT 48.198093 15.361416 37,975 289 423 -64
2021-10-04 10:49:18 GMT 48.194366 15.378619 37,975 289 422 0
2021-10-04 10:49:15 GMT 48.194366 15.378619 37,975 289 422 -64
2021-10-04 10:49:11 GMT 48.191483 15.391775 38,000 289 422 -64
2021-10-04 10:49:08 GMT 48.189713 15.399869 38,000 289 422 -64
2021-10-04 10:49:04 GMT 48.185440 15.419452 38,000 289 423 0
2021-10-04 10:49:01 GMT 48.185440 15.419452 38,000 289 423 0
2021-10-04 10:48:58 GMT 48.183929 15.426213 38,000 289 423 0
2021-10-04 10:48:55 GMT 48.181564 15.437020 38,000 289 423 0
2021-10-04 10:48:52 GMT 48.180355 15.442513 38,000 289 423 0
2021-10-04 10:48:49 GMT 48.178619 15.450580 38,000 289 423 0
2021-10-04 10:48:46 GMT 48.176586 15.459715 38,000 289 423 0
2021-10-04 10:48:43 GMT 48.172581 15.478074 38,000 289 422 -128
2021-10-04 10:48:40 GMT 48.172581 15.478074 38,000 289 423 -128
2021-10-04 10:48:37 GMT 48.171043 15.485302 38,025 289 423 -128
2021-10-04 10:48:34 GMT 48.169834 15.490867 38,025 289 423 -128
2021-10-04 10:48:31 GMT 48.167740 15.500336 38,025 289 424 -64
2021-10-04 10:48:28 GMT 48.165924 15.508720 38,025 289 424 -64
2021-10-04 10:48:25 GMT 48.162186 15.525724 38,025 289 423 0
2021-10-04 10:48:22 GMT 48.162186 15.525724 38,025 289 423 64
2021-10-04 10:48:19 GMT 48.159622 15.537277 38,025 289 424 0
2021-10-04 10:48:16 GMT 48.158386 15.542908 38,025 289 423 0
2021-10-04 10:48:13 GMT 48.154613 15.559880 38,025 289 424 0
2021-10-04 10:48:10 GMT 48.154613 15.559880 38,025 289 424 0
2021-10-04 10:48:07 GMT 48.153030 15.566993 38,025 289 425 0
2021-10-04 10:48:04 GMT 48.149353 15.583684 38,025 289 425 -64
2021-10-04 10:48:01 GMT 48.149353 15.583684 38,025 289 425 -64
2021-10-04 10:47:58 GMT 48.147308 15.592896 38,025 289 425 0
2021-10-04 10:47:55 GMT 48.145111 15.602989 38,025 289 425 0
2021-10-04 10:47:52 GMT 48.143280 15.611298 38,025 289 425 0
2021-10-04 10:47:49 GMT 48.141392 15.619882 38,025 289 425 0
2021-10-04 10:47:46 GMT 48.139156 15.630024 38,025 289 425 0
2021-10-04 10:47:42 GMT 48.137947 15.635517 38,025 289 425 0
2021-10-04 10:47:39 GMT 48.135406 15.646935 38,025 289 425 0
2021-10-04 10:47:36 GMT 48.133759 15.654391 38,025 289 425 0
2021-10-04 10:47:33 GMT 48.131699 15.663620 38,025 289 425 0
2021-10-04 10:47:29 GMT 48.129456 15.673645 38,025 289 425 0
2021-10-04 10:47:26 GMT 48.127350 15.683189 38,025 289 425 0
2021-10-04 10:47:22 GMT 48.125282 15.692420 38,025 289 425 0
2021-10-04 10:47:19 GMT 48.122818 15.703548 38,025 289 425 0
2021-10-04 10:47:16 GMT 48.121189 15.710801 38,025 289 426 0
2021-10-04 10:47:13 GMT 48.119659 15.717728 38,050 289 426 0
2021-10-04 10:47:10 GMT 48.117371 15.728126 38,050 289 426 0
2021-10-04 10:47:07 GMT 48.115311 15.737297 38,050 289 426 0
2021-10-04 10:47:04 GMT 48.113892 15.743889 38,050 289 425 0
2021-10-04 10:47:00 GMT 48.111923 15.752815 38,025 289 426 0
2021-10-04 10:46:57 GMT 48.109818 15.762360 38,025 289 425 0
2021-10-04 10:46:54 GMT 48.108078 15.770187 38,025 289 425 0
2021-10-04 10:46:51 GMT 48.106339 15.777946 38,025 289 425 64
2021-10-04 10:46:48 GMT 48.104057 15.788199 38,025 289 425 64
2021-10-04 10:46:45 GMT 48.099838 15.806923 38,025 289 426 0
2021-10-04 10:46:42 GMT 48.099838 15.806923 38,025 289 425 0
2021-10-04 10:46:39 GMT 48.098049 15.814960 38,025 289 425 0
2021-10-04 10:46:36 GMT 48.096222 15.823128 38,025 289 425 0
2021-10-04 10:46:33 GMT 48.092834 15.838165 38,025 289 426 0
2021-10-04 10:46:30 GMT 48.092834 15.838165 38,000 289 425 0
2021-10-04 10:46:27 GMT 48.090881 15.846863 38,000 289 425 0
2021-10-04 10:46:24 GMT 48.088852 15.856018 38,000 289 425 0
2021-10-04 10:46:21 GMT 48.087299 15.863061 38,000 289 425 64
2021-10-04 10:46:18 GMT 48.084923 15.873624 38,000 289 425 64
2021-10-04 10:46:15 GMT 48.083061 15.882005 38,000 289 425 64
2021-10-04 10:46:12 GMT 48.081341 15.889822 38,000 289 426 0
2021-10-04 10:46:09 GMT 48.079430 15.898132 38,000 289 426 0
2021-10-04 10:46:06 GMT 48.077911 15.905045 38,000 289 426 0
2021-10-04 10:46:03 GMT 48.075897 15.913902 38,000 289 426 0
2021-10-04 10:46:00 GMT 48.074020 15.922279 38,000 289 426 0
2021-10-04 10:45:56 GMT 48.070908 15.936218 38,000 289 426 0
2021-10-04 10:45:53 GMT 48.069626 15.941849 38,000 289 425 0
2021-10-04 10:45:50 GMT 48.067932 15.949261 38,000 289 425 0
2021-10-04 10:45:47 GMT 48.065838 15.958698 38,000 289 425 0
2021-10-04 10:45:44 GMT 48.063416 15.969473 38,000 289 425 0
2021-10-04 10:45:41 GMT 48.062256 15.974533 38,000 289 425 0
2021-10-04 10:45:38 GMT 48.059692 15.985953 38,000 289 424 -64
2021-10-04 10:45:35 GMT 48.058483 15.991516 38,000 289 425 0
2021-10-04 10:45:32 GMT 48.053787 16.012299 38,000 289 425 0
2021-10-04 10:45:28 GMT 48.053787 16.012299 38,000 289 425 0
2021-10-04 10:45:25 GMT 48.050381 16.027643 38,000 289 425 0
2021-10-04 10:45:22 GMT 48.050381 16.027643 37,975 289 428 64
2021-10-04 10:45:19 GMT 48.048569 16.035713 38,000 289 427 128
2021-10-04 10:45:16 GMT 48.046417 16.045189 38,000 289 428 64
2021-10-04 10:45:12 GMT 48.044037 16.055763 37,975 289 428 64
2021-10-04 10:45:09 GMT 48.042095 16.064405 37,975 289 430 0
2021-10-04 10:45:06 GMT 48.040512 16.071520 37,975 289 430 0
2021-10-04 10:45:03 GMT 48.038185 16.081873 38,000 289 431 0
2021-10-04 10:45:00 GMT 48.036880 16.087576 37,975 289 431 0
2021-10-04 10:44:57 GMT 48.034836 16.096825 37,975 289 431 0
2021-10-04 10:44:54 GMT 48.032547 16.106918 37,975 289 431 0
2021-10-04 10:44:51 GMT 48.030487 16.115982 38,000 289 431 0
2021-10-04 10:44:47 GMT 48.027988 16.126944 38,000 289 431 -64
2021-10-04 10:44:44 GMT 48.024826 16.141100 38,000 289 431 0
2021-10-04 10:44:41 GMT 48.024826 16.141100 38,000 289 431 0
2021-10-04 10:44:38 GMT 48.022778 16.150114 38,000 289 431 0
2021-10-04 10:44:35 GMT 48.020554 16.159859 38,000 289 430 0
2021-10-04 10:44:32 GMT 48.019272 16.165627 38,000 289 430 64
2021-10-04 10:44:28 GMT 48.016342 16.178398 37,975 289 430 0
2021-10-04 10:44:25 GMT 48.013885 16.189411 38,000 289 430 0
2021-10-04 10:44:22 GMT 48.012814 16.193989 38,000 289 430 0
2021-10-04 10:44:19 GMT 48.010620 16.203804 38,000 289 430 0
2021-10-04 10:44:16 GMT 48.008438 16.213354 38,000 289 430 64
2021-10-04 10:44:13 GMT 48.004623 16.230171 37,975 289 430 64
2021-10-04 10:44:10 GMT 48.004623 16.230171 37,975 289 430 64
2021-10-04 10:44:07 GMT 48.002388 16.239977 37,975 289 429 64
2021-10-04 10:44:04 GMT 48.001408 16.244343 37,975 289 429 64
2021-10-04 10:44:01 GMT 47.999126 16.254484 37,975 289 429 0
2021-10-04 10:43:58 GMT 47.996521 16.265753 37,975 289 429 64
2021-10-04 10:43:55 GMT 47.995239 16.271507 37,975 289 429 128
2021-10-04 10:43:51 GMT 47.991028 16.290047 37,925 289 428 128
2021-10-04 10:43:48 GMT 47.991028 16.290047 37,950 289 428 320
2021-10-04 10:43:45 GMT 47.989334 16.297256 37,925 289 427 448
2021-10-04 10:43:42 GMT 47.986633 16.309067 37,875 289 426 768
2021-10-04 10:43:39 GMT 47.984756 16.317307 37,800 289 426 1024
2021-10-04 10:43:36 GMT 47.982742 16.326233 37,800 289 426 1152
2021-10-04 10:43:33 GMT 47.980785 16.334839 37,775 289 426 1152
2021-10-04 10:43:30 GMT 47.979485 16.340403 37,725 289 426 1216
2021-10-04 10:43:27 GMT 47.977482 16.349276 37,625 289 427 1280
2021-10-04 10:43:24 GMT 47.975060 16.359840 37,575 289 427 1280
2021-10-04 10:43:21 GMT 47.973522 16.366529 37,450 289 427 1280
2021-10-04 10:43:18 GMT 47.971664 16.374573 37,425 289 428 1280
2021-10-04 10:43:15 GMT 47.967728 16.391945 37,375 289 429 1280
2021-10-04 10:43:12 GMT 47.967728 16.391945 37,300 289 429 1024
2021-10-04 10:43:09 GMT 47.966171 16.398674 37,250 289 429 832
2021-10-04 10:43:06 GMT 47.964447 16.406109 37,175 289 429 768
2021-10-04 10:43:03 GMT 47.962326 16.415359 37,150 289 429 768
2021-10-04 10:43:00 GMT 47.960350 16.423998 37,125 289 428 768
2021-10-04 10:42:57 GMT 47.957882 16.434631 37,075 289 428 768
2021-10-04 10:42:54 GMT 47.955742 16.444139 36,025 289 427 896
2021-10-04 10:42:51 GMT 47.954407 16.449829 36,025 289 427 896
2021-10-04 10:42:48 GMT 47.950287 16.467613 36,950 289 427 896
2021-10-04 10:42:45 GMT 47.950287 16.467613 36,925 289 427 896
2021-10-04 10:42:41 GMT 47.947639 16.479139 36,800 289 427 960
2021-10-04 10:42:38 GMT 47.945873 16.486816 36,775 290 426 960
2021-10-04 10:42:35 GMT 47.943405 16.497452 36,725 290 426 704
2021-10-04 10:42:32 GMT 47.942093 16.503113 36,725 290 426 768
2021-10-04 10:42:29 GMT 47.939865 16.512875 36,675 290 426 704
2021-10-04 10:42:26 GMT 47.938522 16.518700 36,625 289 425 704
2021-10-04 10:42:23 GMT 47.936188 16.528656 36,525 289 424 960
2021-10-04 10:42:20 GMT 47.934608 16.535551 36,575 289 424 832
2021-10-04 10:42:16 GMT 47.931953 16.547029 36,475 289 424 960
2021-10-04 10:42:13 GMT 47.929905 16.555834 36,425 290 423 960
2021-10-04 10:42:10 GMT 47.928177 16.563332 36,375 290 423 960
2021-10-04 10:42:07 GMT 47.926163 16.572121 36,250 289 421 896
2021-10-04 10:42:04 GMT 47.924458 16.579565 36,300 289 420 896
2021-10-04 10:42:01 GMT 47.922226 16.589149 36,250 289 421 896
2021-10-04 10:41:58 GMT 47.920074 16.598488 36,175 289 420 832
2021-10-04 10:41:55 GMT 47.918793 16.604050 36,150 289 420 832
2021-10-04 10:41:52 GMT 47.916000 16.615997 36,100 290 419 256
2021-10-04 10:41:49 GMT 47.914993 16.620461 36,025 290 419 256
2021-10-04 10:41:46 GMT 47.912636 16.630554 36,050 290 419 320
2021-10-04 10:41:43 GMT 47.910446 16.640062 36,025 289 420 64
2021-10-04 10:41:40 GMT 47.909317 16.644905 36,000 289 420 0
2021-10-04 10:41:37 GMT 47.907028 16.654861 36,025 289 420 -64
2021-10-04 10:41:34 GMT 47.905464 16.661612 36,025 289 420 -64
2021-10-04 10:41:31 GMT 47.903603 16.669781 36,025 290 421 0
2021-10-04 10:41:28 GMT 47.900997 16.680838 36,025 290 421 0
2021-10-04 10:41:25 GMT 47.899841 16.685966 36,025 290 421 0
2021-10-04 10:41:22 GMT 47.895828 16.703163 36,025 290 421 0
2021-10-04 10:41:19 GMT 47.894257 16.709999 36,025 290 421 0
2021-10-04 10:41:16 GMT 47.894257 16.709999 36,025 289 420 0
2021-10-04 10:41:13 GMT 47.889038 16.732452 36,025 290 421 64
2021-10-04 10:41:09 GMT 47.886658 16.742670 36,025 290 421 64
2021-10-04 10:41:05 GMT 47.886658 16.742670 36,025 290 421 64
2021-10-04 10:41:02 GMT 47.884415 16.752228 36,025 290 421 0
2021-10-04 10:40:59 GMT 47.882702 16.759573 36,025 290 421 0
2021-10-04 10:40:56 GMT 47.881393 16.765274 36,000 290 421 0
2021-10-04 10:40:53 GMT 47.879105 16.775093 36,000 290 420 0
2021-10-04 10:40:50 GMT 47.877274 16.782784 36,000 290 421 0
2021-10-04 10:40:47 GMT 47.875992 16.788277 36,000 290 421 0
2021-10-04 10:40:44 GMT 47.873253 16.799997 36,000 290 421 0
2021-10-04 10:40:41 GMT 47.871529 16.807392 36,000 290 421 0
2021-10-04 10:40:38 GMT 47.869667 16.815279 36,000 290 421 0
2021-10-04 10:40:35 GMT 47.867477 16.824575 36,000 290 421 0
2021-10-04 10:40:32 GMT 47.865601 16.832497 36,000 290 420 0
2021-10-04 10:40:29 GMT 47.863243 16.842604 36,000 290 421 0
2021-10-04 10:40:26 GMT 47.861893 16.848495 36,000 290 421 0
2021-10-04 10:40:23 GMT 47.859890 16.856901 36,000 290 421 64
2021-10-04 10:40:20 GMT 47.858631 16.862253 36,000 290 421 64
2021-10-04 10:40:17 GMT 47.856071 16.873310 36,000 290 420 0
2021-10-04 10:40:14 GMT 47.854202 16.881111 36,000 290 420 0
2021-10-04 10:40:11 GMT 47.852161 16.889860 36,000 290 419 0
2021-10-04 10:40:08 GMT 47.850906 16.895256 36,000 290 420 0
2021-10-04 10:40:05 GMT 47.848846 16.904045 36,000 290 420 0
2021-10-04 10:40:02 GMT 47.846420 16.914413 36,000 290 420 0
2021-10-04 10:39:58 GMT 47.843582 16.926430 36,000 290 420 0
2021-10-04 10:39:55 GMT 47.842293 16.932043 36,000 290 419 0
2021-10-04 10:39:52 GMT 47.839737 16.942841 36,000 290 420 0
2021-10-04 10:39:49 GMT 47.838291 16.949017 36,000 290 420 0
2021-10-04 10:39:46 GMT 47.836102 16.958172 36,000 290 420 0
2021-10-04 10:39:43 GMT 47.832516 16.973454 35,975 290 419 0
2021-10-04 10:39:40 GMT 47.832516 16.973454 35,975 290 419 0
2021-10-04 10:39:37 GMT 47.830124 16.983490 35,975 290 419 0
2021-10-04 10:39:34 GMT 47.828281 16.991413 36,000 290 419 0
2021-10-04 10:39:31 GMT 47.826698 16.997963 36,000 290 419 0
2021-10-04 10:39:28 GMT 47.825089 17.004776 36,000 290 419 0
2021-10-04 10:39:25 GMT 47.822880 17.014301 36,000 290 418 0
2021-10-04 10:39:22 GMT 47.820648 17.023727 36,000 290 418 0
2021-10-04 10:39:19 GMT 47.818787 17.031626 36,000 290 418 0
2021-10-04 10:39:15 GMT 47.816162 17.042679 35,975 290 418 0
2021-10-04 10:39:11 GMT 47.814175 17.051064 36,000 290 418 0
2021-10-04 10:39:08 GMT 47.811756 17.061344 36,000 290 418 0
2021-10-04 10:39:05 GMT 47.810394 17.067055 36,000 290 418 0
2021-10-04 10:39:02 GMT 47.807938 17.077543 36,000 290 417 0
2021-10-04 10:38:59 GMT 47.806309 17.084373 36,000 290 417 0
2021-10-04 10:38:56 GMT 47.804260 17.093010 36,000 290 417 0
2021-10-04 10:38:52 GMT 47.801746 17.103458 36,000 290 417 0
2021-10-04 10:38:49 GMT 47.797417 17.121840 35,975 290 417 0
2021-10-04 10:38:46 GMT 47.797417 17.121840 35,975 290 417 0
2021-10-04 10:38:43 GMT 47.795879 17.128319 35,975 290 417 0
2021-10-04 10:38:40 GMT 47.794159 17.135431 35,975 290 417 0
2021-10-04 10:38:37 GMT 47.792450 17.142723 36,000 290 417 0
2021-10-04 10:38:34 GMT 47.787735 17.162636 36,000 290 417 0
2021-10-04 10:38:30 GMT 47.787735 17.162636 36,000 290 417 -64
2021-10-04 10:38:27 GMT 47.785446 17.172386 36,000 290 416 -64
2021-10-04 10:38:23 GMT 47.783295 17.181519 36,000 290 416 0
2021-10-04 10:38:20 GMT 47.781235 17.190170 36,000 290 416 0
2021-10-04 10:38:17 GMT 47.778980 17.199591 36,000 290 416 0
2021-10-04 10:38:14 GMT 47.773956 17.220932 36,000 290 416 -64
2021-10-04 10:38:09 GMT 47.773956 17.220932 36,000 290 416 0
2021-10-04 10:38:06 GMT 47.772652 17.226421 36,000 290 416 0
2021-10-04 10:38:03 GMT 47.770752 17.234322 36,000 290 432 1472
2021-10-04 10:38:00 GMT 47.768326 17.244553 36,000 290 417 -64
2021-10-04 10:37:56 GMT 47.766087 17.254028 36,000 290 419 0
2021-10-04 10:37:53 GMT 47.764069 17.262337 36,000 290 419 0
2021-10-04 10:37:49 GMT 47.761433 17.273537 36,000 290 420 0
2021-10-04 10:37:46 GMT 47.759811 17.280327 36,000 290 420 64
2021-10-04 10:37:43 GMT 47.757614 17.289528 36,000 290 421 128
2021-10-04 10:37:39 GMT 47.755051 17.300171 35,975 290 423 256
2021-10-04 10:37:33 GMT 47.751068 17.316856 35,950 290 424 320
2021-10-04 10:37:30 GMT 47.748962 17.325577 35,925 290 426 256
2021-10-04 10:37:27 GMT 47.747047 17.333609 35,925 290 427 256
2021-10-04 10:37:24 GMT 47.745045 17.341919 35,900 290 429 512
2021-10-04 10:37:21 GMT 47.742599 17.352081 35,550 290 430 1536
2021-10-04 10:37:18 GMT 47.741180 17.357977 35,875 290 430 960
2021-10-04 10:37:15 GMT 47.739227 17.366285 35,825 290 429 1280
2021-10-04 10:37:12 GMT 47.737225 17.374525 35,775 290 429 1472
2021-10-04 10:37:08 GMT 47.734909 17.384354 35,625 290 429 1536
2021-10-04 10:37:05 GMT 47.729916 17.405090 35,550 290 430 1536
2021-10-04 10:37:02 GMT 47.729916 17.405090 35,475 290 431 1472
2021-10-04 10:36:59 GMT 47.727917 17.413471 35,400 290 431 1472
2021-10-04 10:36:56 GMT 47.726704 17.418402 35,325 290 431 1536
2021-10-04 10:36:53 GMT 47.724792 17.426445 35,275 290 431 1472
2021-10-04 10:36:50 GMT 47.722141 17.437414 35,150 290 432 1472
2021-10-04 10:36:47 GMT 47.720215 17.445396 35,100 290 432 1472
2021-10-04 10:36:44 GMT 47.718750 17.451508 35,075 290 432 1536
2021-10-04 10:36:40 GMT 47.715065 17.466925 34,900 290 432 1536
2021-10-04 10:36:37 GMT 47.713715 17.472418 34,850 290 432 1472
2021-10-04 10:36:34 GMT 47.711716 17.480726 34,775 290 432 1408
2021-10-04 10:36:31 GMT 47.710365 17.486292 34,650 290 432 1408
2021-10-04 10:36:28 GMT 47.707664 17.497488 34,650 290 432 1408
2021-10-04 10:36:25 GMT 47.705704 17.505547 34,550 290 432 1472
2021-10-04 10:36:22 GMT 47.703754 17.513617 34,525 290 432 1472
2021-10-04 10:36:19 GMT 47.701538 17.522850 34,400 290 432 1472
2021-10-04 10:36:16 GMT 47.696960 17.541733 34,350 290 432 1536
2021-10-04 10:36:13 GMT 47.696960 17.541733 34,250 290 432 1536
2021-10-04 10:36:10 GMT 47.694908 17.550377 34,100 290 433 1664
2021-10-04 10:36:07 GMT 47.693790 17.554955 34,100 290 433 1664
2021-10-04 10:36:04 GMT 47.691509 17.564392 33,875 290 433 1600
2021-10-04 10:36:01 GMT 47.689545 17.572495 33,950 290 433 1664
2021-10-04 10:35:58 GMT 47.687256 17.581970 33,825 290 433 1600
2021-10-04 10:35:55 GMT 47.685368 17.589815 33,775 290 433 1600
2021-10-04 10:35:52 GMT 47.681408 17.606153 33,700 290 433 1536
2021-10-04 10:35:49 GMT 47.681408 17.606153 33,625 290 433 1600
2021-10-04 10:35:46 GMT 47.678707 17.617422 33,525 290 433 1664
2021-10-04 10:35:43 GMT 47.677406 17.622915 33,500 290 433 1728
2021-10-04 10:35:40 GMT 47.675674 17.629898 33,425 290 433 1728
2021-10-04 10:35:37 GMT 47.673660 17.638275 33,325 290 434 1664
2021-10-04 10:35:34 GMT 47.671307 17.648058 33,200 290 434 1600
2021-10-04 10:35:31 GMT 47.668671 17.658943 33,125 290 434 1664
2021-10-04 10:35:27 GMT 47.666000 17.669958 33,025 290 434 1664
2021-10-04 10:35:24 GMT 47.662090 17.686087 32,925 290 434 1728
2021-10-04 10:35:21 GMT 47.662090 17.686087 32,250 290 435 1984
2021-10-04 10:35:18 GMT 47.659836 17.695335 32,525 290 434 1920
2021-10-04 10:35:15 GMT 47.658463 17.700897 32,675 290 434 1920
2021-10-04 10:35:12 GMT 47.655991 17.710991 32,500 290 434 1920
2021-10-04 10:35:09 GMT 47.654755 17.716072 32,500 290 434 1920
2021-10-04 10:35:05 GMT 47.651150 17.730806 32,275 290 435 1600
2021-10-04 10:35:02 GMT 47.649754 17.736441 32,225 290 435 1536
2021-10-04 10:34:59 GMT 47.647659 17.745117 32,125 290 435 1920
2021-10-04 10:34:56 GMT 47.645378 17.754398 32,125 290 435 1664
2021-10-04 10:34:52 GMT 47.640720 17.773415 31,975 290 435 1856
2021-10-04 10:34:49 GMT 47.638535 17.782429 31,875 290 435 1984
2021-10-04 10:34:46 GMT 47.638535 17.782429 31,850 290 435 1984
2021-10-04 10:34:43 GMT 47.636486 17.790810 31,700 290 436 2112
2021-10-04 10:34:40 GMT 47.630402 17.815842 31,350 290 436 2112
2021-10-04 10:34:35 GMT 47.630402 17.815842 31,425 290 438 2112
2021-10-04 10:34:32 GMT 47.628616 17.823189 31,100 290 439 1984
2021-10-04 10:34:29 GMT 47.626648 17.831085 31,150 290 439 1984
2021-10-04 10:34:26 GMT 47.624706 17.839191 31,000 290 439 1792
2021-10-04 10:34:23 GMT 47.622894 17.846516 31,050 290 439 1856
2021-10-04 10:34:19 GMT 47.619961 17.858418 30,900 290 439 1792
2021-10-04 10:34:16 GMT 47.618271 17.865417 30,800 290 439 1792
2021-10-04 10:34:13 GMT 47.615341 17.877365 30,725 290 439 1728
2021-10-04 10:34:10 GMT 47.611176 17.894257 30,575 290 439 1600
2021-10-04 10:34:07 GMT 47.611176 17.894257 30,550 290 439 1600
2021-10-04 10:34:04 GMT 47.610214 17.898170 30,475 290 438 1536
2021-10-04 10:34:01 GMT 47.608154 17.906616 30,350 290 438 1472
2021-10-04 10:33:58 GMT 47.604858 17.920143 30,300 290 437 1152
2021-10-04 10:33:55 GMT 47.603107 17.927153 30,225 291 428 1408
2021-10-04 10:33:52 GMT 47.601479 17.933844 30,200 290 434 1152
2021-10-04 10:33:49 GMT 47.598907 17.944244 30,100 291 435 1152
2021-10-04 10:33:45 GMT 47.595940 17.956238 30,075 290 434 1152
2021-10-04 10:33:42 GMT 47.594742 17.961205 29,975 290 434 1280
2021-10-04 10:33:38 GMT 47.592041 17.972122 29,925 291 432 1536
2021-10-04 10:33:35 GMT 47.589233 17.983562 29,825 291 431 1664
2021-10-04 10:33:32 GMT 47.587559 17.990395 29,775 291 431 1664
2021-10-04 10:33:29 GMT 47.585770 17.997665 29,625 291 431 1600
2021-10-04 10:33:26 GMT 47.583649 18.006168 29,550 291 431 1600
2021-10-04 10:33:22 GMT 47.580414 18.019226 29,500 291 430 1472
2021-10-04 10:33:19 GMT 47.578400 18.027466 29,325 291 425 1216
2021-10-04 10:33:15 GMT 47.576385 18.035706 29,350 291 428 1408
2021-10-04 10:33:12 GMT 47.573689 18.046522 29,275 291 428 1280
2021-10-04 10:33:08 GMT 47.571350 18.056099 29,150 291 425 1216
2021-10-04 10:33:05 GMT 47.569824 18.062298 29,150 291 425 1216
2021-10-04 10:33:01 GMT 47.566704 18.074835 28,850 291 423 1152
2021-10-04 10:32:56 GMT 47.562515 18.091736 28,900 291 421 1024
2021-10-04 10:32:53 GMT 47.561279 18.096817 28,900 291 421 1088
2021-10-04 10:32:50 GMT 47.559349 18.104624 28,850 291 420 1152
2021-10-04 10:32:47 GMT 47.557625 18.111666 28,750 291 418 1664
2021-10-04 10:32:44 GMT 47.555283 18.121056 28,750 291 418 1664
2021-10-04 10:32:41 GMT 47.553040 18.130119 28,525 291 417 2112
2021-10-04 10:32:38 GMT 47.551025 18.138153 28,475 291 417 2112
2021-10-04 10:32:35 GMT 47.549480 18.144342 28,350 291 417 2048
2021-10-04 10:32:32 GMT 47.547180 18.153671 28,250 291 417 1920
2021-10-04 10:32:29 GMT 47.544754 18.163353 28,200 291 417 1664
2021-10-04 10:32:26 GMT 47.543335 18.168991 28,125 291 417 1536
2021-10-04 10:32:23 GMT 47.541752 18.175470 28,075 291 417 1536
2021-10-04 10:32:20 GMT 47.539215 18.185875 27,975 290 415 1472
2021-10-04 10:32:17 GMT 47.537247 18.193909 27,900 291 415 1536
2021-10-04 10:32:14 GMT 47.534958 18.203148 27,800 291 414 1664
2021-10-04 10:32:10 GMT 47.532761 18.211899 27,675 291 413 1664
2021-10-04 10:32:07 GMT 47.530487 18.221107 27,150 291 409 1728
2021-10-04 10:32:03 GMT 47.528183 18.230370 27,475 291 411 1664
2021-10-04 10:32:00 GMT 47.525436 18.241425 27,400 291 411 1664
2021-10-04 10:31:57 GMT 47.523880 18.247810 26,675 291 407 1728
2021-10-04 10:31:54 GMT 47.522552 18.253098 27,225 291 409 1792
2021-10-04 10:31:51 GMT 47.520103 18.262728 27,150 291 409 1792
2021-10-04 10:31:48 GMT 47.518803 18.268009 27,100 291 408 1728
2021-10-04 10:31:45 GMT 47.516148 18.278503 26,975 291 408 1728
2021-10-04 10:31:41 GMT 47.513489 18.289078 26,825 291 406 1728
2021-10-04 10:31:38 GMT 47.511448 18.297167 26,725 291 406 1856
2021-10-04 10:31:35 GMT 47.509323 18.305763 26,675 291 405 1920
2021-10-04 10:31:32 GMT 47.508186 18.310265 26,225 291 405 1984
2021-10-04 10:31:29 GMT 47.505814 18.319632 26,500 291 405 1920
2021-10-04 10:31:26 GMT 47.503922 18.327118 26,400 291 405 1856
2021-10-04 10:31:23 GMT 47.501587 18.336388 26,300 291 404 1856
2021-10-04 10:31:20 GMT 47.500229 18.341745 26,175 291 403 1856
2021-10-04 10:31:17 GMT 47.498245 18.349709 26,100 291 402 1920
2021-10-04 10:31:14 GMT 47.495911 18.359047 25,925 291 401 2304
2021-10-04 10:31:11 GMT 47.493576 18.368317 25,900 291 401 2432
2021-10-04 10:31:08 GMT 47.492203 18.373878 25,750 291 401 2496
2021-10-04 10:31:05 GMT 47.490543 18.380339 25,650 291 401 2432
2021-10-04 10:31:02 GMT 47.488262 18.389565 25,575 291 401 2304
2021-10-04 10:30:58 GMT 47.486309 18.397310 25,475 291 401 1984
2021-10-04 10:30:55 GMT 47.483963 18.406769 25,300 291 400 1664
2021-10-04 10:30:52 GMT 47.482040 18.414459 25,225 291 399 1600
2021-10-04 10:30:49 GMT 47.478489 18.428509 25,125 291 397 1408
2021-10-04 10:30:46 GMT 47.478489 18.428509 25,050 291 396 1408
2021-10-04 10:30:43 GMT 47.476345 18.437172 25,025 291 395 1536
2021-10-04 10:30:39 GMT 47.473644 18.447735 24,900 291 393 1792
2021-10-04 10:30:36 GMT 47.471878 18.454847 24,825 291 393 1856
2021-10-04 10:30:33 GMT 47.469971 18.462383 24,700 291 392 1920
2021-10-04 10:30:30 GMT 47.467529 18.472137 24,600 291 391 2048
2021-10-04 10:30:27 GMT 47.466198 18.477455 24,450 291 390 2112
2021-10-04 10:30:24 GMT 47.464600 18.483742 24,450 291 390 2112
2021-10-04 10:30:21 GMT 47.462585 18.491707 24,300 291 389 2240
2021-10-04 10:30:18 GMT 47.460571 18.499672 24,200 291 389 2176
2021-10-04 10:30:15 GMT 47.458050 18.509850 24,100 291 389 2176
2021-10-04 10:30:12 GMT 47.456680 18.515121 22,550 291 388 2240
2021-10-04 10:30:09 GMT 47.454803 18.522606 23,825 291 388 2304
2021-10-04 10:30:06 GMT 47.453064 18.529541 23,775 291 388 2368
2021-10-04 10:30:03 GMT 47.451050 18.537437 23,550 291 388 2368
2021-10-04 10:30:00 GMT 47.448742 18.546612 23,475 291 387 2240
2021-10-04 10:29:57 GMT 47.447205 18.552750 23,450 291 387 2240
2021-10-04 10:29:54 GMT 47.445667 18.558935 23,375 291 386 2176
2021-10-04 10:29:50 GMT 47.443085 18.569092 23,175 291 385 2048
2021-10-04 10:29:47 GMT 47.438232 18.588181 22,950 291 384 1856
2021-10-04 10:29:42 GMT 47.438232 18.588181 22,900 291 383 1920
2021-10-04 10:29:39 GMT 47.435940 18.597248 22,675 291 381 1984
2021-10-04 10:29:36 GMT 47.434357 18.603586 22,775 291 381 2112
2021-10-04 10:29:33 GMT 47.432693 18.610222 22,675 291 380 2304
2021-10-04 10:29:30 GMT 47.430588 18.618462 22,475 291 380 2816
2021-10-04 10:29:27 GMT 47.429123 18.624298 21,800 291 380 3072
2021-10-04 10:29:24 GMT 47.426254 18.635630 22,225 291 380 3008
2021-10-04 10:29:21 GMT 47.425552 18.638306 22,175 291 380 3072
2021-10-04 10:29:18 GMT 47.423138 18.647814 21,875 291 380 3136
2021-10-04 10:29:15 GMT 47.421890 18.652794 21,875 291 380 3136
2021-10-04 10:29:11 GMT 47.419319 18.662884 21,675 291 381 2944
2021-10-04 10:29:08 GMT 47.417175 18.671402 21,450 291 381 2304
2021-10-04 10:29:05 GMT 47.415642 18.677391 21,325 291 380 2304
2021-10-04 10:29:02 GMT 47.413036 18.687674 21,250 291 379 2304
2021-10-04 10:28:58 GMT 47.410629 18.697014 21,100 291 379 2304
2021-10-04 10:28:54 GMT 47.408100 18.706900 20,925 291 378 2304
2021-10-04 10:28:51 GMT 47.406830 18.711983 20,875 291 377 2304
2021-10-04 10:28:48 GMT 47.404655 18.720350 20,700 291 375 2368
2021-10-04 10:28:45 GMT 47.403030 18.726952 20,575 291 375 2368
2021-10-04 10:28:42 GMT 47.400791 18.735704 20,425 291 375 2560
2021-10-04 10:28:39 GMT 47.399460 18.740822 20,325 291 374 2688
2021-10-04 10:28:36 GMT 47.397022 18.750492 20,225 291 374 2624
2021-10-04 10:28:33 GMT 47.395161 18.757675 20,100 291 373 2624
2021-10-04 10:28:29 GMT 47.393204 18.765282 19,950 291 373 2624
2021-10-04 10:28:25 GMT 47.390488 18.775909 19,775 291 372 2560
2021-10-04 10:28:22 GMT 47.388969 18.781832 19,625 291 370 2496
2021-10-04 10:28:19 GMT 47.386826 18.790123 19,525 291 370 2496
2021-10-04 10:28:16 GMT 47.385056 18.796974 19,400 291 369 2560
2021-10-04 10:28:13 GMT 47.383072 18.804749 19,275 291 368 2624
2021-10-04 10:28:10 GMT 47.381882 18.809555 19,175 291 368 2624
2021-10-04 10:28:07 GMT 47.379822 18.817520 18,800 291 367 2880
2021-10-04 10:28:04 GMT 47.377979 18.824793 18,900 291 367 2944
2021-10-04 10:28:00 GMT 47.376167 18.831835 18,625 291 367 2944
2021-10-04 10:27:57 GMT 47.373699 18.841553 18,550 291 366 2880
2021-10-04 10:27:54 GMT 47.371948 18.848282 18,425 291 366 2880
2021-10-04 10:27:49 GMT 47.367088 18.867188 18,150 291 365 2880
2021-10-04 10:27:45 GMT 47.367088 18.867188 18,050 291 365 2880
2021-10-04 10:27:42 GMT 47.364529 18.877047 17,850 291 365 2880
2021-10-04 10:27:39 GMT 47.363434 18.881378 17,600 291 364 2752
2021-10-04 10:27:36 GMT 47.361374 18.889275 17,500 291 364 2752
2021-10-04 10:27:33 GMT 47.359818 18.895317 17,400 291 364 2688
2021-10-04 10:27:30 GMT 47.358032 18.902321 17,300 291 363 2688
2021-10-04 10:27:27 GMT 47.355652 18.911522 17,150 291 362 2880
2021-10-04 10:27:24 GMT 47.354004 18.917976 16,975 291 362 2880
2021-10-04 10:27:21 GMT 47.352402 18.924019 16,775 291 362 2816
2021-10-04 10:27:18 GMT 47.350330 18.932049 16,775 291 362 2816
2021-10-04 10:27:15 GMT 47.348740 18.938301 16,575 291 360 2560
2021-10-04 10:27:12 GMT 47.346886 18.945431 16,475 291 360 2496
2021-10-04 10:27:09 GMT 47.344620 18.954369 16,375 291 360 2432
2021-10-04 10:27:06 GMT 47.342834 18.961235 16,225 291 357 2304
2021-10-04 10:27:03 GMT 47.341808 18.965149 16,125 291 357 2240
2021-10-04 10:26:59 GMT 47.338852 18.976616 16,000 291 355 2112
2021-10-04 10:26:55 GMT 47.337112 18.983414 15,850 291 351 1984
2021-10-04 10:26:52 GMT 47.334595 18.993109 15,750 291 351 1984
2021-10-04 10:26:49 GMT 47.333771 18.996391 15,650 291 348 2240
2021-10-04 10:26:45 GMT 47.331009 19.006910 15,525 291 346 2432
2021-10-04 10:26:42 GMT 47.329010 19.014587 15,375 292 345 2816
2021-10-04 10:26:39 GMT 47.326172 19.025505 14,950 292 344 3328
2021-10-04 10:26:36 GMT 47.326172 19.025505 15,125 292 344 3264
2021-10-04 10:26:33 GMT 47.324203 19.032921 15,000 292 344 3264
2021-10-04 10:26:29 GMT 47.322052 19.041229 14,800 292 344 3392
2021-10-04 10:26:26 GMT 47.320312 19.047684 14,500 292 344 3328
2021-10-04 10:26:23 GMT 47.318394 19.054941 14,450 292 344 3328
2021-10-04 10:26:19 GMT 47.316513 19.062103 14,225 292 344 3008
2021-10-04 10:26:16 GMT 47.314392 19.070293 14,075 292 343 2816
2021-10-04 10:26:13 GMT 47.312622 19.076984 13,900 292 342 2688
2021-10-04 10:26:09 GMT 47.310154 19.086281 13,775 292 340 2624
2021-10-04 10:26:05 GMT 47.308434 19.092758 13,650 292 339 2624
2021-10-04 10:26:02 GMT 47.306580 19.099869 13,300 292 335 2432
2021-10-04 10:25:59 GMT 47.304569 19.107267 13,225 292 332 2432
2021-10-04 10:25:55 GMT 47.302643 19.114700 13,175 292 331 2432
2021-10-04 10:25:52 GMT 47.300892 19.121210 13,100 292 331 2432
2021-10-04 10:25:48 GMT 47.298065 19.131935 12,875 291 326 2816
2021-10-04 10:25:45 GMT 47.297012 19.136055 12,800 291 326 2816
2021-10-04 10:25:41 GMT 47.295349 19.142481 12,325 291 324 3072
2021-10-04 10:25:38 GMT 47.293671 19.148895 12,375 292 323 3072
2021-10-04 10:25:34 GMT 47.291519 19.157135 12,300 292 323 3072
2021-10-04 10:25:31 GMT 47.289299 19.165579 12,100 292 321 3072
2021-10-04 10:25:27 GMT 47.287125 19.173820 11,900 292 320 3136
2021-10-04 10:25:24 GMT 47.286228 19.177340 11,700 291 319 3264
2021-10-04 10:25:21 GMT 47.284470 19.184052 11,625 291 318 3328
2021-10-04 10:25:18 GMT 47.282822 19.190575 11,375 289 316 2560
2021-10-04 10:25:14 GMT 47.280945 19.198265 11,225 284 314 2176
2021-10-04 10:25:11 GMT 47.279572 19.205509 11,150 282 313 2048
2021-10-04 10:25:08 GMT 47.278824 19.211355 10,975 272 308 1536
2021-10-04 10:25:05 GMT 47.278454 19.217623 10,975 272 308 1536
2021-10-04 10:25:02 GMT 47.278748 19.226830 10,875 263 300 1216
2021-10-04 10:24:58 GMT 47.279243 19.231920 10,800 256 294 1344
2021-10-04 10:24:55 GMT 47.281525 19.243399 10,725 251 290 1536
2021-10-04 10:24:52 GMT 47.283691 19.250656 10,625 246 285 2112
2021-10-04 10:24:48 GMT 47.283691 19.250656 10,200 239 280 0
2021-10-04 10:24:44 GMT 47.286575 19.258415 10,200 239 280 0
2021-10-04 10:24:41 GMT 47.288509 19.263046 10,175 239 278 4224
2021-10-04 10:24:37 GMT 47.290558 19.267906 9,975 239 279 4160
2021-10-04 10:24:33 GMT 47.293396 19.274809 9,575 240 280 3456
2021-10-04 10:24:30 GMT 47.295399 19.279737 9,525 241 280 3264
2021-10-04 10:24:26 GMT 47.297791 19.285881 9,225 241 278 2880
2021-10-04 10:24:23 GMT 47.299805 19.291100 9,075 241 276 2688
2021-10-04 10:24:20 GMT 47.301956 19.296730 9,025 241 275 2560
2021-10-04 10:24:16 GMT 47.304104 19.302416 8,725 241 272 2496
2021-10-04 10:24:11 GMT 47.307453 19.311077 8,525 241 268 2688
2021-10-04 10:24:07 GMT 47.309921 19.317604 8,475 241 264 2624
2021-10-04 10:24:03 GMT 47.312202 19.323685 8,325 241 261 2368
2021-10-04 10:24:00 GMT 47.314762 19.330444 8,100 241 255 3712
2021-10-04 10:23:57 GMT 47.316067 19.333824 8,000 241 256 3456
2021-10-04 10:23:54 GMT 47.319790 19.343473 7,800 241 255 3392
2021-10-04 10:23:50 GMT 47.319790 19.343473 7,675 240 254 3392
2021-10-04 10:23:46 GMT 47.322006 19.349052 7,425 240 253 3392
2021-10-04 10:23:42 GMT 47.324661 19.355576 7,100 239 252 3328
2021-10-04 10:23:39 GMT 47.327545 19.362579 6,925 239 250 3136
2021-10-04 10:23:35 GMT 47.328415 19.364639 6,850 239 250 3136
2021-10-04 10:23:32 GMT 47.330685 19.370024 6,675 239 248 3008
2021-10-04 10:23:29 GMT 47.332397 19.374115 6,525 240 246 3136
2021-10-04 10:23:25 GMT 47.334454 19.379179 6,350 240 243 3008
2021-10-04 10:23:22 GMT 47.336609 19.384415 6,175 236 242 2752
2021-10-04 10:23:19 GMT 47.338646 19.388475 5,925 227 236 2624
2021-10-04 10:23:16 GMT 47.341324 19.392929 5,875 223 234 2624
2021-10-04 10:23:12 GMT 47.343933 19.396294 5,725 217 231 2688
2021-10-04 10:23:08 GMT 47.348839 19.401081 5,475 205 225 3008
2021-10-04 10:23:05 GMT 47.350021 19.401924 5,400 204 224 3264
2021-10-04 10:23:02 GMT 47.352539 19.403435 5,175 198 224 4224
2021-10-04 10:22:59 GMT 47.356800 19.405235 4,975 189 226 4416
2021-10-04 10:22:55 GMT 47.360291 19.405800 4,725 183 228 4352
2021-10-04 10:22:51 GMT 47.364109 19.405800 4,500 175 230 4224
2021-10-04 10:22:48 GMT 47.367508 19.405235 4,350 169 233 4160
2021-10-04 10:22:45 GMT 47.371094 19.403969 4,025 159 236 4160
2021-10-04 10:22:41 GMT 47.374584 19.401997 3,775 151 238 3968
2021-10-04 10:22:38 GMT 47.377518 19.399742 3,350 140 241 3392
2021-10-04 10:22:34 GMT 47.381145 19.396009 3,350 138 242 3328
2021-10-04 10:22:28 GMT 47.386036 19.388756 3,025 125 243 2496
2021-10-04 10:22:24 GMT 47.388474 19.383522 2,850 120 239 2560
2021-10-04 10:22:21 GMT 47.390167 19.379265 2,725 120 236 2496
2021-10-04 10:22:17 GMT 47.392319 19.373772 2,475 120 228 1408
2021-10-04 10:22:14 GMT 47.394135 19.369320 2,450 120 225 832
2021-10-04 10:22:08 GMT 47.397583 19.360519 2,350 120 211 576
2021-10-04 10:22:03 GMT 47.399490 19.355867 2,300 119 203 320
2021-10-04 10:22:00 GMT 47.400745 19.352558 2,300 119 199 640
2021-10-04 10:21:57 GMT 47.402328 19.348404 2,250 119 191 1088
2021-10-04 10:21:53 GMT 47.404129 19.343697 2,125 119 185 1216
2021-10-04 10:21:50 GMT 47.405167 19.340939 2,125 119 185 1216
2021-10-04 10:21:47 GMT 47.406517 19.337416 2,050 118 181 1216
2021-10-04 10:21:43 GMT 47.408195 19.332909 1,975 118 175 1344
2021-10-04 10:21:40 GMT 47.409218 19.330162 1,925 119 173 1216
2021-10-04 10:21:36 GMT 47.410709 19.326288 1,825 119 168 1344
2021-10-04 10:21:33 GMT 47.412384 19.321852 1,725 119 164 1280
2021-10-04 10:21:28 GMT 47.415985 19.312592 1,600 120 158 1280
2021-10-04 10:21:24 GMT 47.415985 19.312592 1,500 120 154 2240
2021-10-04 10:21:20 GMT 47.416759 19.310583 1,425 120 154 2176
2021-10-04 10:21:17 GMT 47.418064 19.307274 1,300 119 153 2240
2021-10-04 10:21:13 GMT 47.419693 19.302979 1,150 116 152 1920
2021-10-04 10:21:10 GMT 47.420158 19.301640 1,050 114 151 2304
2021-10-04 10:21:07 GMT 47.421227 19.298260 950 119 150 2304
2021-10-04 10:21:04 GMT 47.422073 19.295975 875 125 149 2240
2021-10-04 10:20:59 GMT 47.423950 19.292336 700 132 148 2624
2021-10-04 10:20:55 GMT 47.426010 19.288971 525 131 152 2688
2021-10-04 10:20:52 GMT 47.427979 19.285744 375 131 155 2112
2021-10-04 10:20:49 GMT 47.428745 19.284546 0 132 165
2021-10-04 10:20:46 GMT 47.432621 19.278294 0 132 145
2021-10-04 10:20:43 GMT 47.431587 19.279915 0 132 150
2021-10-04 10:20:38 GMT 47.433815 19.276337 0 132 135
2021-10-04 10:20:32 GMT 47.436550 19.271925 0 132 110
2021-10-04 10:20:28 GMT 47.437340 19.270672 0 132 96
2021-10-04 10:20:23 GMT 47.438599 19.268612 0 132 74
2021-10-04 10:20:19 GMT 47.439442 19.267256 0 132 56
2021-10-04 10:20:11 GMT 47.440659 19.265179 0 104 14
2021-10-04 10:20:08 GMT 47.440582 19.265408 0 115 16
2021-10-04 10:20:02 GMT 47.440704 19.264853 0 87 13
2021-10-04 10:19:59 GMT 47.440704 19.264647 0 87 12
2021-10-04 10:19:51 GMT 47.440651 19.264069 0 75 10
2021-10-04 10:19:48 GMT 47.440605 19.263857 0 67 9
2021-10-04 10:19:43 GMT 47.440536 19.263611 0 64 8
2021-10-04 10:19:38 GMT 47.440468 19.263416 0 50 8
2021-10-04 10:19:35 GMT 47.440407 19.263290 0 47 7
2021-10-04 10:19:32 GMT 47.440361 19.263222 0 45 7
2021-10-04 10:19:28 GMT 47.440269 19.263084 0 42 7
2021-10-04 10:19:22 GMT 47.440174 19.262941 0 42 6
2021-10-04 10:19:08 GMT 47.439995 19.262690 0 42 2
2021-10-04 10:18:48 GMT 47.439964 19.262659 0 42 0
2021-10-04 10:18:34 GMT 47.439960 19.262655 0 42 0
2021-10-04 10:18:31 GMT 47.439953 19.262659 0 42 0
2021-10-04 10:18:23 GMT 47.439941 19.262625 0 42 2
2021-10-04 10:18:17 GMT 47.439880 19.262552 0 42 7
2021-10-04 10:18:14 GMT 47.439789 19.262415 0 42 8
2021-10-04 10:18:06 GMT 47.439548 19.262167 0 22 9
2021-10-04 10:18:00 GMT 47.439373 19.262079 0 354 9
2021-10-04 10:17:47 GMT 47.438965 19.262415 0 312 11
2021-10-04 10:17:40 GMT 47.438759 19.262758 0 312 10
2021-10-04 10:17:31 GMT 47.438499 19.263187 0 309 10
2021-10-04 10:17:24 GMT 47.438290 19.263540 0 309 10
2021-10-04 10:16:54 GMT 47.437313 19.263964 0 42 9
2021-10-04 10:16:41 GMT 47.437031 19.263565 0 312 6
2021-10-04 10:16:40 GMT 47.437019 19.263565 0 19 5
2021-10-04 10:16:29 GMT 47.436871 19.263462 0 348 4
2021-10-04 10:16:17 GMT 47.436707 19.263489 0 320 4
2021-10-04 10:15:51 GMT 47.436321 19.264063 0 312 6
2021-10-04 10:15:32 GMT 47.436054 19.264509 0 312 6
2021-10-04 10:15:27 GMT 47.435955 19.264681 0 315 7
2021-10-04 10:15:17 GMT 47.435783 19.264956 0 312 7
2021-10-04 10:15:00 GMT 47.435532 19.265335 0 312 4
2021-10-04 10:14:57 GMT 47.435520 19.265371 0 315 3
2021-10-04 10:13:00 GMT 47.435474 19.265436 0 317 3
2021-10-04 10:12:55 GMT 47.435497 19.265385 0 309 2
2021-10-04 10:12:45 GMT 47.435452 19.265230 0 267 4
2021-10-04 10:12:33 GMT 47.435333 19.265072 0 230 3
2021-10-04 10:12:16 GMT 47.435181 19.264914 0 222 3
2021-10-04 10:11:14 GMT 47.435062 19.264715 0 222 0

Making use of Plane Finder data

You are free to use the raw flight data, aircraft information and images provided in this report for your own purposes provided the data is correctly attributed to Plane Finder. We ask that you please credit Plane Finder and link to planefinder.net in close proximity to the content.

Optionally one of the following logos (no smaller then 150x24px) can be used and must link to planefinder.net

Embedding the Plane Finder map

You are welcome to embed the Plane Finder playback map on your website to offer visitors a more interactive experience. We suggest using the following HTML code:

<iframe src="//planefinder.net/data/report/AF1295-F-GRHL-7700-squawk-2021-10-04/map" width="800" height="600" seamless="seamless"></iframe>

Where our data comes from

Plane Finder has a global network of data feeds and antenna radars that receive data broadcast directly from aircraft. The primary technologies used are ADS-B and MLAT. We also show feeds from the FAA and a FLARM glider feed.

Click here to find out more about the Plane Finder network.

How we collect our data